<?xml version="1.0" encoding="UTF-8" standalone="no" ?>
<gpx xmlns="http://www.topografix.com/GPX/1/1" xmlns:xsi="http://www.w3.org/2001/XMLSchema-instance" xsi:schemaLocation="http://www.topografix.com/GPX/1/1 http://www.topografix.com/GPX/1/1/gpx.xsd" version="1.1" creator="VisuGPX - https://www.visugpx.com">
  <metadata>
    <name>Cheval-Blanc Course à pied</name>
  </metadata>
  <trk>
    <name><![CDATA[Cheval-Blanc Course à pied_1]]></name>
    <trkseg>
      <trkpt lat="43.79403" lon="5.09445">
        <ele>158.6</ele>
        <time>2021-11-26T17:48:14Z</time>
      </trkpt>
      <trkpt lat="43.79403" lon="5.09447">
        <ele>158.4</ele>
        <time>2021-11-26T17:48:15Z</time>
      </trkpt>
      <trkpt lat="43.79401" lon="5.09452">
        <ele>158.2</ele>
        <time>2021-11-26T17:48:17Z</time>
      </trkpt>
      <trkpt lat="43.79399" lon="5.09456">
        <ele>158</ele>
        <time>2021-11-26T17:48:19Z</time>
      </trkpt>
      <trkpt lat="43.79396" lon="5.0946">
        <ele>157.8</ele>
        <time>2021-11-26T17:48:21Z</time>
      </trkpt>
      <trkpt lat="43.79393" lon="5.09466">
        <ele>157.4</ele>
        <time>2021-11-26T17:48:25Z</time>
      </trkpt>
      <trkpt lat="43.79391" lon="5.09468">
        <ele>157.2</ele>
        <time>2021-11-26T17:48:27Z</time>
      </trkpt>
      <trkpt lat="43.79389" lon="5.09469">
        <ele>157</ele>
        <time>2021-11-26T17:48:29Z</time>
      </trkpt>
      <trkpt lat="43.79382" lon="5.09475">
        <ele>156.4</ele>
        <time>2021-11-26T17:48:33Z</time>
      </trkpt>
      <trkpt lat="43.7938" lon="5.09475">
        <ele>156.2</ele>
        <time>2021-11-26T17:48:34Z</time>
      </trkpt>
      <trkpt lat="43.79367" lon="5.09457">
        <ele>156.8</ele>
        <time>2021-11-26T17:48:44Z</time>
      </trkpt>
      <trkpt lat="43.79365" lon="5.09455">
        <ele>156.2</ele>
        <time>2021-11-26T17:48:47Z</time>
      </trkpt>
      <trkpt lat="43.79362" lon="5.09443">
        <ele>155.2</ele>
        <time>2021-11-26T17:48:54Z</time>
      </trkpt>
      <trkpt lat="43.79361" lon="5.09438">
        <ele>154.8</ele>
        <time>2021-11-26T17:48:57Z</time>
      </trkpt>
      <trkpt lat="43.79349" lon="5.09429">
        <ele>154.8</ele>
        <time>2021-11-26T17:49:02Z</time>
      </trkpt>
      <trkpt lat="43.79343" lon="5.09421">
        <ele>154.6</ele>
        <time>2021-11-26T17:49:07Z</time>
      </trkpt>
      <trkpt lat="43.7934" lon="5.09417">
        <ele>154.4</ele>
        <time>2021-11-26T17:49:12Z</time>
      </trkpt>
      <trkpt lat="43.79334" lon="5.09415">
        <ele>154.2</ele>
        <time>2021-11-26T17:49:16Z</time>
      </trkpt>
      <trkpt lat="43.7933" lon="5.09412">
        <ele>154.2</ele>
        <time>2021-11-26T17:49:19Z</time>
      </trkpt>
      <trkpt lat="43.79334" lon="5.09402">
        <ele>154.2</ele>
        <time>2021-11-26T17:49:23Z</time>
      </trkpt>
      <trkpt lat="43.79338" lon="5.09395">
        <ele>154.2</ele>
        <time>2021-11-26T17:49:27Z</time>
      </trkpt>
      <trkpt lat="43.79338" lon="5.09391">
        <ele>153.6</ele>
        <time>2021-11-26T17:49:31Z</time>
      </trkpt>
      <trkpt lat="43.7934" lon="5.09387">
        <ele>153</ele>
        <time>2021-11-26T17:49:33Z</time>
      </trkpt>
      <trkpt lat="43.79341" lon="5.09383">
        <ele>152.8</ele>
        <time>2021-11-26T17:49:35Z</time>
      </trkpt>
      <trkpt lat="43.79341" lon="5.09378">
        <ele>152.6</ele>
        <time>2021-11-26T17:49:37Z</time>
      </trkpt>
      <trkpt lat="43.79342" lon="5.09359">
        <ele>153</ele>
        <time>2021-11-26T17:49:45Z</time>
      </trkpt>
      <trkpt lat="43.79347" lon="5.09347">
        <ele>152.4</ele>
        <time>2021-11-26T17:49:50Z</time>
      </trkpt>
      <trkpt lat="43.79349" lon="5.09338">
        <ele>152</ele>
        <time>2021-11-26T17:49:54Z</time>
      </trkpt>
      <trkpt lat="43.7935" lon="5.09331">
        <ele>151.6</ele>
        <time>2021-11-26T17:49:58Z</time>
      </trkpt>
      <trkpt lat="43.79349" lon="5.09326">
        <ele>151.4</ele>
        <time>2021-11-26T17:50:00Z</time>
      </trkpt>
      <trkpt lat="43.79345" lon="5.09308">
        <ele>151.4</ele>
        <time>2021-11-26T17:50:10Z</time>
      </trkpt>
      <trkpt lat="43.79344" lon="5.09301">
        <ele>151</ele>
        <time>2021-11-26T17:50:13Z</time>
      </trkpt>
      <trkpt lat="43.79345" lon="5.09297">
        <ele>150.8</ele>
        <time>2021-11-26T17:50:15Z</time>
      </trkpt>
      <trkpt lat="43.79345" lon="5.09288">
        <ele>150.6</ele>
        <time>2021-11-26T17:50:18Z</time>
      </trkpt>
      <trkpt lat="43.79343" lon="5.09275">
        <ele>150.4</ele>
        <time>2021-11-26T17:50:23Z</time>
      </trkpt>
      <trkpt lat="43.79345" lon="5.09267">
        <ele>150.2</ele>
        <time>2021-11-26T17:50:27Z</time>
      </trkpt>
      <trkpt lat="43.7936" lon="5.09249">
        <ele>150.6</ele>
        <time>2021-11-26T17:50:34Z</time>
      </trkpt>
      <trkpt lat="43.7936" lon="5.09246">
        <ele>150.4</ele>
        <time>2021-11-26T17:50:35Z</time>
      </trkpt>
      <trkpt lat="43.7936" lon="5.09239">
        <ele>149.8</ele>
        <time>2021-11-26T17:50:38Z</time>
      </trkpt>
      <trkpt lat="43.7936" lon="5.09235">
        <ele>149.4</ele>
        <time>2021-11-26T17:50:41Z</time>
      </trkpt>
      <trkpt lat="43.79359" lon="5.0923">
        <ele>149</ele>
        <time>2021-11-26T17:50:44Z</time>
      </trkpt>
      <trkpt lat="43.79358" lon="5.09225">
        <ele>148.8</ele>
        <time>2021-11-26T17:50:47Z</time>
      </trkpt>
      <trkpt lat="43.79357" lon="5.09217">
        <ele>148.8</ele>
        <time>2021-11-26T17:50:51Z</time>
      </trkpt>
      <trkpt lat="43.79353" lon="5.092">
        <ele>148</ele>
        <time>2021-11-26T17:50:58Z</time>
      </trkpt>
      <trkpt lat="43.79356" lon="5.09189">
        <ele>148</ele>
        <time>2021-11-26T17:51:02Z</time>
      </trkpt>
      <trkpt lat="43.79358" lon="5.09183">
        <ele>148.2</ele>
        <time>2021-11-26T17:51:04Z</time>
      </trkpt>
      <trkpt lat="43.79353" lon="5.09161">
        <ele>147.6</ele>
        <time>2021-11-26T17:51:12Z</time>
      </trkpt>
      <trkpt lat="43.79353" lon="5.0916">
        <ele>147.4</ele>
        <time>2021-11-26T17:51:13Z</time>
      </trkpt>
      <trkpt lat="43.79353" lon="5.09155">
        <ele>147.2</ele>
        <time>2021-11-26T17:51:15Z</time>
      </trkpt>
      <trkpt lat="43.79351" lon="5.09153">
        <ele>147.2</ele>
        <time>2021-11-26T17:51:17Z</time>
      </trkpt>
      <trkpt lat="43.79351" lon="5.09149">
        <ele>147.2</ele>
        <time>2021-11-26T17:51:19Z</time>
      </trkpt>
      <trkpt lat="43.79351" lon="5.09145">
        <ele>147</ele>
        <time>2021-11-26T17:51:21Z</time>
      </trkpt>
      <trkpt lat="43.79351" lon="5.09141">
        <ele>146.6</ele>
        <time>2021-11-26T17:51:23Z</time>
      </trkpt>
      <trkpt lat="43.79349" lon="5.09123">
        <ele>146.2</ele>
        <time>2021-11-26T17:51:32Z</time>
      </trkpt>
      <trkpt lat="43.79342" lon="5.09105">
        <ele>145.6</ele>
        <time>2021-11-26T17:51:43Z</time>
      </trkpt>
      <trkpt lat="43.79341" lon="5.091">
        <ele>144.8</ele>
        <time>2021-11-26T17:51:46Z</time>
      </trkpt>
      <trkpt lat="43.79339" lon="5.09096">
        <ele>144.4</ele>
        <time>2021-11-26T17:51:48Z</time>
      </trkpt>
      <trkpt lat="43.79337" lon="5.09085">
        <ele>143.4</ele>
        <time>2021-11-26T17:51:54Z</time>
      </trkpt>
      <trkpt lat="43.79336" lon="5.09083">
        <ele>143.4</ele>
        <time>2021-11-26T17:51:55Z</time>
      </trkpt>
      <trkpt lat="43.79328" lon="5.09068">
        <ele>142.8</ele>
        <time>2021-11-26T17:52:03Z</time>
      </trkpt>
      <trkpt lat="43.79323" lon="5.09057">
        <ele>143</ele>
        <time>2021-11-26T17:52:09Z</time>
      </trkpt>
      <trkpt lat="43.7932" lon="5.0905">
        <ele>142.2</ele>
        <time>2021-11-26T17:52:13Z</time>
      </trkpt>
      <trkpt lat="43.79319" lon="5.09048">
        <ele>142</ele>
        <time>2021-11-26T17:52:14Z</time>
      </trkpt>
      <trkpt lat="43.79317" lon="5.09042">
        <ele>141.8</ele>
        <time>2021-11-26T17:52:18Z</time>
      </trkpt>
      <trkpt lat="43.79314" lon="5.09035">
        <ele>141.8</ele>
        <time>2021-11-26T17:52:22Z</time>
      </trkpt>
      <trkpt lat="43.79309" lon="5.09026">
        <ele>142.2</ele>
        <time>2021-11-26T17:52:26Z</time>
      </trkpt>
      <trkpt lat="43.79294" lon="5.09008">
        <ele>141.8</ele>
        <time>2021-11-26T17:52:36Z</time>
      </trkpt>
      <trkpt lat="43.79292" lon="5.09006">
        <ele>141.6</ele>
        <time>2021-11-26T17:52:38Z</time>
      </trkpt>
      <trkpt lat="43.79289" lon="5.09001">
        <ele>141.8</ele>
        <time>2021-11-26T17:52:41Z</time>
      </trkpt>
      <trkpt lat="43.79274" lon="5.08987">
        <ele>141.4</ele>
        <time>2021-11-26T17:52:54Z</time>
      </trkpt>
      <trkpt lat="43.79264" lon="5.08976">
        <ele>141.4</ele>
        <time>2021-11-26T17:53:00Z</time>
      </trkpt>
      <trkpt lat="43.79252" lon="5.08956">
        <ele>141.4</ele>
        <time>2021-11-26T17:53:10Z</time>
      </trkpt>
      <trkpt lat="43.79251" lon="5.08958">
        <ele>141.2</ele>
        <time>2021-11-26T17:53:12Z</time>
      </trkpt>
      <trkpt lat="43.79251" lon="5.08964">
        <ele>141.2</ele>
        <time>2021-11-26T17:53:15Z</time>
      </trkpt>
      <trkpt lat="43.79249" lon="5.08969">
        <ele>142</ele>
        <time>2021-11-26T17:53:18Z</time>
      </trkpt>
      <trkpt lat="43.79249" lon="5.08971">
        <ele>142.4</ele>
        <time>2021-11-26T17:53:20Z</time>
      </trkpt>
      <trkpt lat="43.79249" lon="5.08975">
        <ele>143.2</ele>
        <time>2021-11-26T17:53:23Z</time>
      </trkpt>
      <trkpt lat="43.79249" lon="5.08976">
        <ele>143.4</ele>
        <time>2021-11-26T17:53:24Z</time>
      </trkpt>
      <trkpt lat="43.7925" lon="5.08979">
        <ele>143.8</ele>
        <time>2021-11-26T17:53:26Z</time>
      </trkpt>
      <trkpt lat="43.79252" lon="5.08984">
        <ele>144.6</ele>
        <time>2021-11-26T17:53:29Z</time>
      </trkpt>
      <trkpt lat="43.79257" lon="5.08991">
        <ele>145.8</ele>
        <time>2021-11-26T17:53:34Z</time>
      </trkpt>
      <trkpt lat="43.79257" lon="5.08993">
        <ele>146.2</ele>
        <time>2021-11-26T17:53:36Z</time>
      </trkpt>
      <trkpt lat="43.79259" lon="5.08996">
        <ele>147</ele>
        <time>2021-11-26T17:53:39Z</time>
      </trkpt>
      <trkpt lat="43.7926" lon="5.08998">
        <ele>147.8</ele>
        <time>2021-11-26T17:53:41Z</time>
      </trkpt>
      <trkpt lat="43.79261" lon="5.08999">
        <ele>148.2</ele>
        <time>2021-11-26T17:53:42Z</time>
      </trkpt>
      <trkpt lat="43.79264" lon="5.09007">
        <ele>149.4</ele>
        <time>2021-11-26T17:53:46Z</time>
      </trkpt>
      <trkpt lat="43.79267" lon="5.09012">
        <ele>150.8</ele>
        <time>2021-11-26T17:53:50Z</time>
      </trkpt>
      <trkpt lat="43.79269" lon="5.09017">
        <ele>151.8</ele>
        <time>2021-11-26T17:53:54Z</time>
      </trkpt>
      <trkpt lat="43.79269" lon="5.09018">
        <ele>151.8</ele>
        <time>2021-11-26T17:53:55Z</time>
      </trkpt>
      <trkpt lat="43.79271" lon="5.09022">
        <ele>152.2</ele>
        <time>2021-11-26T17:53:57Z</time>
      </trkpt>
      <trkpt lat="43.79274" lon="5.09027">
        <ele>153</ele>
        <time>2021-11-26T17:54:00Z</time>
      </trkpt>
      <trkpt lat="43.79282" lon="5.09036">
        <ele>154.2</ele>
        <time>2021-11-26T17:54:07Z</time>
      </trkpt>
      <trkpt lat="43.79288" lon="5.09046">
        <ele>155</ele>
        <time>2021-11-26T17:54:12Z</time>
      </trkpt>
      <trkpt lat="43.7929" lon="5.09051">
        <ele>155.4</ele>
        <time>2021-11-26T17:54:15Z</time>
      </trkpt>
      <trkpt lat="43.79291" lon="5.09054">
        <ele>155.6</ele>
        <time>2021-11-26T17:54:17Z</time>
      </trkpt>
      <trkpt lat="43.79292" lon="5.09062">
        <ele>156.4</ele>
        <time>2021-11-26T17:54:21Z</time>
      </trkpt>
      <trkpt lat="43.79292" lon="5.09068">
        <ele>156.6</ele>
        <time>2021-11-26T17:54:24Z</time>
      </trkpt>
      <trkpt lat="43.79297" lon="5.09078">
        <ele>157.6</ele>
        <time>2021-11-26T17:54:29Z</time>
      </trkpt>
      <trkpt lat="43.79302" lon="5.09085">
        <ele>158.2</ele>
        <time>2021-11-26T17:54:33Z</time>
      </trkpt>
      <trkpt lat="43.79303" lon="5.09088">
        <ele>158.2</ele>
        <time>2021-11-26T17:54:35Z</time>
      </trkpt>
      <trkpt lat="43.79303" lon="5.09092">
        <ele>158.8</ele>
        <time>2021-11-26T17:54:38Z</time>
      </trkpt>
      <trkpt lat="43.79302" lon="5.09098">
        <ele>159.4</ele>
        <time>2021-11-26T17:54:41Z</time>
      </trkpt>
      <trkpt lat="43.79303" lon="5.09103">
        <ele>160</ele>
        <time>2021-11-26T17:54:44Z</time>
      </trkpt>
      <trkpt lat="43.79307" lon="5.09113">
        <ele>161</ele>
        <time>2021-11-26T17:54:49Z</time>
      </trkpt>
      <trkpt lat="43.79307" lon="5.09116">
        <ele>161.2</ele>
        <time>2021-11-26T17:54:51Z</time>
      </trkpt>
      <trkpt lat="43.79307" lon="5.09118">
        <ele>161.6</ele>
        <time>2021-11-26T17:54:53Z</time>
      </trkpt>
      <trkpt lat="43.79307" lon="5.09122">
        <ele>162</ele>
        <time>2021-11-26T17:54:55Z</time>
      </trkpt>
      <trkpt lat="43.79309" lon="5.09125">
        <ele>162.4</ele>
        <time>2021-11-26T17:54:57Z</time>
      </trkpt>
      <trkpt lat="43.79311" lon="5.09131">
        <ele>163.2</ele>
        <time>2021-11-26T17:55:00Z</time>
      </trkpt>
      <trkpt lat="43.79313" lon="5.09137">
        <ele>164.2</ele>
        <time>2021-11-26T17:55:04Z</time>
      </trkpt>
      <trkpt lat="43.79313" lon="5.09139">
        <ele>164.2</ele>
        <time>2021-11-26T17:55:05Z</time>
      </trkpt>
      <trkpt lat="43.79313" lon="5.09146">
        <ele>165.2</ele>
        <time>2021-11-26T17:55:09Z</time>
      </trkpt>
      <trkpt lat="43.79318" lon="5.09155">
        <ele>166.4</ele>
        <time>2021-11-26T17:55:13Z</time>
      </trkpt>
      <trkpt lat="43.79321" lon="5.09163">
        <ele>167.4</ele>
        <time>2021-11-26T17:55:16Z</time>
      </trkpt>
      <trkpt lat="43.79324" lon="5.0917">
        <ele>168.6</ele>
        <time>2021-11-26T17:55:20Z</time>
      </trkpt>
      <trkpt lat="43.79323" lon="5.09173">
        <ele>169.2</ele>
        <time>2021-11-26T17:55:23Z</time>
      </trkpt>
      <trkpt lat="43.79322" lon="5.09176">
        <ele>169.6</ele>
        <time>2021-11-26T17:55:25Z</time>
      </trkpt>
      <trkpt lat="43.79322" lon="5.09178">
        <ele>169.8</ele>
        <time>2021-11-26T17:55:26Z</time>
      </trkpt>
      <trkpt lat="43.79323" lon="5.09184">
        <ele>170.6</ele>
        <time>2021-11-26T17:55:29Z</time>
      </trkpt>
      <trkpt lat="43.79322" lon="5.09193">
        <ele>171.8</ele>
        <time>2021-11-26T17:55:34Z</time>
      </trkpt>
      <trkpt lat="43.79321" lon="5.09197">
        <ele>172.6</ele>
        <time>2021-11-26T17:55:37Z</time>
      </trkpt>
      <trkpt lat="43.7932" lon="5.09199">
        <ele>172.8</ele>
        <time>2021-11-26T17:55:38Z</time>
      </trkpt>
      <trkpt lat="43.79317" lon="5.09207">
        <ele>173.4</ele>
        <time>2021-11-26T17:55:42Z</time>
      </trkpt>
      <trkpt lat="43.79316" lon="5.09213">
        <ele>174</ele>
        <time>2021-11-26T17:55:44Z</time>
      </trkpt>
      <trkpt lat="43.79315" lon="5.09216">
        <ele>174.2</ele>
        <time>2021-11-26T17:55:45Z</time>
      </trkpt>
      <trkpt lat="43.79312" lon="5.09225">
        <ele>174.8</ele>
        <time>2021-11-26T17:55:50Z</time>
      </trkpt>
      <trkpt lat="43.79311" lon="5.09227">
        <ele>175.2</ele>
        <time>2021-11-26T17:55:52Z</time>
      </trkpt>
      <trkpt lat="43.79307" lon="5.09232">
        <ele>176</ele>
        <time>2021-11-26T17:55:56Z</time>
      </trkpt>
      <trkpt lat="43.79306" lon="5.09234">
        <ele>176.2</ele>
        <time>2021-11-26T17:55:57Z</time>
      </trkpt>
      <trkpt lat="43.79305" lon="5.09236">
        <ele>176.4</ele>
        <time>2021-11-26T17:55:58Z</time>
      </trkpt>
      <trkpt lat="43.79305" lon="5.09245">
        <ele>177.4</ele>
        <time>2021-11-26T17:56:02Z</time>
      </trkpt>
      <trkpt lat="43.793" lon="5.09258">
        <ele>178.6</ele>
        <time>2021-11-26T17:56:09Z</time>
      </trkpt>
      <trkpt lat="43.793" lon="5.09259">
        <ele>178.8</ele>
        <time>2021-11-26T17:56:10Z</time>
      </trkpt>
      <trkpt lat="43.79296" lon="5.09265">
        <ele>179.2</ele>
        <time>2021-11-26T17:56:14Z</time>
      </trkpt>
      <trkpt lat="43.79293" lon="5.09269">
        <ele>179.2</ele>
        <time>2021-11-26T17:56:16Z</time>
      </trkpt>
      <trkpt lat="43.79294" lon="5.09277">
        <ele>179.8</ele>
        <time>2021-11-26T17:56:19Z</time>
      </trkpt>
      <trkpt lat="43.79294" lon="5.09282">
        <ele>180.4</ele>
        <time>2021-11-26T17:56:21Z</time>
      </trkpt>
      <trkpt lat="43.79293" lon="5.09285">
        <ele>180.6</ele>
        <time>2021-11-26T17:56:23Z</time>
      </trkpt>
      <trkpt lat="43.7929" lon="5.09289">
        <ele>181</ele>
        <time>2021-11-26T17:56:26Z</time>
      </trkpt>
      <trkpt lat="43.79289" lon="5.09291">
        <ele>181.2</ele>
        <time>2021-11-26T17:56:27Z</time>
      </trkpt>
      <trkpt lat="43.79288" lon="5.09295">
        <ele>182</ele>
        <time>2021-11-26T17:56:29Z</time>
      </trkpt>
      <trkpt lat="43.79286" lon="5.09301">
        <ele>183.2</ele>
        <time>2021-11-26T17:56:33Z</time>
      </trkpt>
      <trkpt lat="43.79279" lon="5.09312">
        <ele>184.4</ele>
        <time>2021-11-26T17:56:38Z</time>
      </trkpt>
      <trkpt lat="43.79271" lon="5.09326">
        <ele>185.2</ele>
        <time>2021-11-26T17:56:47Z</time>
      </trkpt>
      <trkpt lat="43.7927" lon="5.09327">
        <ele>185.4</ele>
        <time>2021-11-26T17:56:48Z</time>
      </trkpt>
      <trkpt lat="43.79263" lon="5.09337">
        <ele>186.4</ele>
        <time>2021-11-26T17:56:54Z</time>
      </trkpt>
      <trkpt lat="43.7926" lon="5.09341">
        <ele>186.6</ele>
        <time>2021-11-26T17:56:57Z</time>
      </trkpt>
      <trkpt lat="43.79256" lon="5.09347">
        <ele>186.8</ele>
        <time>2021-11-26T17:57:00Z</time>
      </trkpt>
      <trkpt lat="43.79254" lon="5.09354">
        <ele>187.4</ele>
        <time>2021-11-26T17:57:03Z</time>
      </trkpt>
      <trkpt lat="43.79247" lon="5.09369">
        <ele>188</ele>
        <time>2021-11-26T17:57:12Z</time>
      </trkpt>
      <trkpt lat="43.79244" lon="5.09375">
        <ele>188.2</ele>
        <time>2021-11-26T17:57:16Z</time>
      </trkpt>
      <trkpt lat="43.79229" lon="5.09392">
        <ele>188.2</ele>
        <time>2021-11-26T17:57:29Z</time>
      </trkpt>
      <trkpt lat="43.79228" lon="5.09395">
        <ele>188.4</ele>
        <time>2021-11-26T17:57:31Z</time>
      </trkpt>
      <trkpt lat="43.79225" lon="5.09399">
        <ele>188.6</ele>
        <time>2021-11-26T17:57:33Z</time>
      </trkpt>
      <trkpt lat="43.79221" lon="5.09402">
        <ele>188.6</ele>
        <time>2021-11-26T17:57:36Z</time>
      </trkpt>
      <trkpt lat="43.79216" lon="5.09407">
        <ele>188.8</ele>
        <time>2021-11-26T17:57:41Z</time>
      </trkpt>
      <trkpt lat="43.79201" lon="5.09427">
        <ele>189.8</ele>
        <time>2021-11-26T17:57:52Z</time>
      </trkpt>
      <trkpt lat="43.79196" lon="5.09436">
        <ele>190.4</ele>
        <time>2021-11-26T17:57:57Z</time>
      </trkpt>
      <trkpt lat="43.79195" lon="5.09438">
        <ele>190.2</ele>
        <time>2021-11-26T17:57:59Z</time>
      </trkpt>
      <trkpt lat="43.79188" lon="5.09445">
        <ele>190.8</ele>
        <time>2021-11-26T17:58:06Z</time>
      </trkpt>
      <trkpt lat="43.79185" lon="5.0945">
        <ele>191.4</ele>
        <time>2021-11-26T17:58:09Z</time>
      </trkpt>
      <trkpt lat="43.79177" lon="5.09457">
        <ele>191.6</ele>
        <time>2021-11-26T17:58:14Z</time>
      </trkpt>
      <trkpt lat="43.79176" lon="5.09458">
        <ele>191.6</ele>
        <time>2021-11-26T17:58:16Z</time>
      </trkpt>
      <trkpt lat="43.79172" lon="5.0946">
        <ele>191.8</ele>
        <time>2021-11-26T17:58:19Z</time>
      </trkpt>
      <trkpt lat="43.79169" lon="5.09462">
        <ele>192</ele>
        <time>2021-11-26T17:58:21Z</time>
      </trkpt>
      <trkpt lat="43.79162" lon="5.09468">
        <ele>192.2</ele>
        <time>2021-11-26T17:58:26Z</time>
      </trkpt>
      <trkpt lat="43.79155" lon="5.09478">
        <ele>192.6</ele>
        <time>2021-11-26T17:58:31Z</time>
      </trkpt>
      <trkpt lat="43.79153" lon="5.09481">
        <ele>192.8</ele>
        <time>2021-11-26T17:58:33Z</time>
      </trkpt>
      <trkpt lat="43.79146" lon="5.09489">
        <ele>193</ele>
        <time>2021-11-26T17:58:40Z</time>
      </trkpt>
      <trkpt lat="43.79138" lon="5.09506">
        <ele>194</ele>
        <time>2021-11-26T17:58:49Z</time>
      </trkpt>
      <trkpt lat="43.79136" lon="5.0951">
        <ele>194.6</ele>
        <time>2021-11-26T17:58:52Z</time>
      </trkpt>
      <trkpt lat="43.79132" lon="5.09514">
        <ele>194.8</ele>
        <time>2021-11-26T17:58:56Z</time>
      </trkpt>
      <trkpt lat="43.79129" lon="5.09519">
        <ele>195.2</ele>
        <time>2021-11-26T17:59:00Z</time>
      </trkpt>
      <trkpt lat="43.79117" lon="5.0953">
        <ele>195.4</ele>
        <time>2021-11-26T17:59:09Z</time>
      </trkpt>
      <trkpt lat="43.79106" lon="5.09545">
        <ele>195.8</ele>
        <time>2021-11-26T17:59:18Z</time>
      </trkpt>
      <trkpt lat="43.791" lon="5.09554">
        <ele>196.2</ele>
        <time>2021-11-26T17:59:24Z</time>
      </trkpt>
      <trkpt lat="43.79094" lon="5.09566">
        <ele>197</ele>
        <time>2021-11-26T17:59:31Z</time>
      </trkpt>
      <trkpt lat="43.79093" lon="5.09573">
        <ele>197.4</ele>
        <time>2021-11-26T17:59:34Z</time>
      </trkpt>
      <trkpt lat="43.79092" lon="5.09576">
        <ele>197.4</ele>
        <time>2021-11-26T17:59:36Z</time>
      </trkpt>
      <trkpt lat="43.79091" lon="5.0958">
        <ele>197.2</ele>
        <time>2021-11-26T17:59:40Z</time>
      </trkpt>
      <trkpt lat="43.79083" lon="5.09594">
        <ele>197.2</ele>
        <time>2021-11-26T17:59:48Z</time>
      </trkpt>
      <trkpt lat="43.7908" lon="5.09601">
        <ele>197</ele>
        <time>2021-11-26T17:59:53Z</time>
      </trkpt>
      <trkpt lat="43.79077" lon="5.09608">
        <ele>197</ele>
        <time>2021-11-26T17:59:57Z</time>
      </trkpt>
      <trkpt lat="43.79076" lon="5.09612">
        <ele>197</ele>
        <time>2021-11-26T17:59:59Z</time>
      </trkpt>
      <trkpt lat="43.79068" lon="5.09622">
        <ele>196.4</ele>
        <time>2021-11-26T18:00:07Z</time>
      </trkpt>
      <trkpt lat="43.79065" lon="5.09623">
        <ele>196.6</ele>
        <time>2021-11-26T18:00:09Z</time>
      </trkpt>
      <trkpt lat="43.79052" lon="5.09632">
        <ele>196.2</ele>
        <time>2021-11-26T18:00:17Z</time>
      </trkpt>
      <trkpt lat="43.7905" lon="5.09634">
        <ele>196.2</ele>
        <time>2021-11-26T18:00:19Z</time>
      </trkpt>
      <trkpt lat="43.79049" lon="5.09637">
        <ele>196.2</ele>
        <time>2021-11-26T18:00:21Z</time>
      </trkpt>
      <trkpt lat="43.79048" lon="5.09641">
        <ele>196</ele>
        <time>2021-11-26T18:00:25Z</time>
      </trkpt>
      <trkpt lat="43.79043" lon="5.09646">
        <ele>195.4</ele>
        <time>2021-11-26T18:01:06Z</time>
      </trkpt>
      <trkpt lat="43.79041" lon="5.09648">
        <ele>195.2</ele>
        <time>2021-11-26T18:01:09Z</time>
      </trkpt>
      <trkpt lat="43.7904" lon="5.09648">
        <ele>195</ele>
        <time>2021-11-26T18:01:10Z</time>
      </trkpt>
      <trkpt lat="43.79028" lon="5.09648">
        <ele>194.6</ele>
        <time>2021-11-26T18:01:21Z</time>
      </trkpt>
      <trkpt lat="43.7902" lon="5.0965">
        <ele>194.6</ele>
        <time>2021-11-26T18:01:27Z</time>
      </trkpt>
      <trkpt lat="43.79013" lon="5.09653">
        <ele>195.2</ele>
        <time>2021-11-26T18:01:32Z</time>
      </trkpt>
      <trkpt lat="43.7901" lon="5.09655">
        <ele>195.2</ele>
        <time>2021-11-26T18:01:34Z</time>
      </trkpt>
      <trkpt lat="43.79004" lon="5.09658">
        <ele>195</ele>
        <time>2021-11-26T18:01:38Z</time>
      </trkpt>
      <trkpt lat="43.78985" lon="5.09667">
        <ele>195</ele>
        <time>2021-11-26T18:01:49Z</time>
      </trkpt>
      <trkpt lat="43.78972" lon="5.09676">
        <ele>194</ele>
        <time>2021-11-26T18:01:58Z</time>
      </trkpt>
      <trkpt lat="43.7896" lon="5.09684">
        <ele>193</ele>
        <time>2021-11-26T18:02:05Z</time>
      </trkpt>
      <trkpt lat="43.78942" lon="5.09693">
        <ele>192.4</ele>
        <time>2021-11-26T18:02:15Z</time>
      </trkpt>
      <trkpt lat="43.78925" lon="5.09698">
        <ele>192</ele>
        <time>2021-11-26T18:02:25Z</time>
      </trkpt>
      <trkpt lat="43.78913" lon="5.09705">
        <ele>191</ele>
        <time>2021-11-26T18:02:32Z</time>
      </trkpt>
      <trkpt lat="43.78895" lon="5.09714">
        <ele>190.4</ele>
        <time>2021-11-26T18:02:43Z</time>
      </trkpt>
      <trkpt lat="43.7889" lon="5.09717">
        <ele>190.6</ele>
        <time>2021-11-26T18:02:47Z</time>
      </trkpt>
      <trkpt lat="43.78872" lon="5.09726">
        <ele>191.4</ele>
        <time>2021-11-26T18:03:00Z</time>
      </trkpt>
      <trkpt lat="43.78863" lon="5.09733">
        <ele>191.8</ele>
        <time>2021-11-26T18:03:07Z</time>
      </trkpt>
      <trkpt lat="43.78861" lon="5.09734">
        <ele>192</ele>
        <time>2021-11-26T18:03:08Z</time>
      </trkpt>
      <trkpt lat="43.78858" lon="5.09736">
        <ele>192.4</ele>
        <time>2021-11-26T18:03:11Z</time>
      </trkpt>
      <trkpt lat="43.78838" lon="5.09741">
        <ele>192.8</ele>
        <time>2021-11-26T18:03:23Z</time>
      </trkpt>
      <trkpt lat="43.7882" lon="5.09746">
        <ele>192.8</ele>
        <time>2021-11-26T18:03:32Z</time>
      </trkpt>
      <trkpt lat="43.78806" lon="5.09747">
        <ele>193.2</ele>
        <time>2021-11-26T18:03:39Z</time>
      </trkpt>
      <trkpt lat="43.78791" lon="5.09748">
        <ele>191.8</ele>
        <time>2021-11-26T18:03:48Z</time>
      </trkpt>
      <trkpt lat="43.78786" lon="5.09749">
        <ele>190.8</ele>
        <time>2021-11-26T18:03:51Z</time>
      </trkpt>
      <trkpt lat="43.78775" lon="5.0975">
        <ele>189.6</ele>
        <time>2021-11-26T18:03:58Z</time>
      </trkpt>
      <trkpt lat="43.78758" lon="5.0975">
        <ele>188.6</ele>
        <time>2021-11-26T18:04:09Z</time>
      </trkpt>
      <trkpt lat="43.78752" lon="5.0975">
        <ele>187.6</ele>
        <time>2021-11-26T18:04:15Z</time>
      </trkpt>
      <trkpt lat="43.78751" lon="5.09751">
        <ele>187.4</ele>
        <time>2021-11-26T18:04:16Z</time>
      </trkpt>
      <trkpt lat="43.78742" lon="5.09754">
        <ele>186.2</ele>
        <time>2021-11-26T18:04:21Z</time>
      </trkpt>
      <trkpt lat="43.78737" lon="5.09758">
        <ele>185.2</ele>
        <time>2021-11-26T18:04:25Z</time>
      </trkpt>
      <trkpt lat="43.78728" lon="5.09766">
        <ele>184</ele>
        <time>2021-11-26T18:04:30Z</time>
      </trkpt>
      <trkpt lat="43.78721" lon="5.09769">
        <ele>182.8</ele>
        <time>2021-11-26T18:04:34Z</time>
      </trkpt>
      <trkpt lat="43.78715" lon="5.09771">
        <ele>181.6</ele>
        <time>2021-11-26T18:04:38Z</time>
      </trkpt>
      <trkpt lat="43.78708" lon="5.09771">
        <ele>180.6</ele>
        <time>2021-11-26T18:04:43Z</time>
      </trkpt>
      <trkpt lat="43.78706" lon="5.09771">
        <ele>180.2</ele>
        <time>2021-11-26T18:04:45Z</time>
      </trkpt>
      <trkpt lat="43.78703" lon="5.09769">
        <ele>179.6</ele>
        <time>2021-11-26T18:04:47Z</time>
      </trkpt>
      <trkpt lat="43.78695" lon="5.09767">
        <ele>179.4</ele>
        <time>2021-11-26T18:04:52Z</time>
      </trkpt>
      <trkpt lat="43.78676" lon="5.09764">
        <ele>179.8</ele>
        <time>2021-11-26T18:05:02Z</time>
      </trkpt>
      <trkpt lat="43.78662" lon="5.09763">
        <ele>178.6</ele>
        <time>2021-11-26T18:05:11Z</time>
      </trkpt>
      <trkpt lat="43.78656" lon="5.09762">
        <ele>177.4</ele>
        <time>2021-11-26T18:05:15Z</time>
      </trkpt>
      <trkpt lat="43.78652" lon="5.09762">
        <ele>176.2</ele>
        <time>2021-11-26T18:05:18Z</time>
      </trkpt>
      <trkpt lat="43.78647" lon="5.09762">
        <ele>175</ele>
        <time>2021-11-26T18:05:21Z</time>
      </trkpt>
      <trkpt lat="43.78643" lon="5.09759">
        <ele>173.8</ele>
        <time>2021-11-26T18:05:24Z</time>
      </trkpt>
      <trkpt lat="43.78639" lon="5.09756">
        <ele>172.8</ele>
        <time>2021-11-26T18:05:28Z</time>
      </trkpt>
      <trkpt lat="43.78635" lon="5.09756">
        <ele>171.8</ele>
        <time>2021-11-26T18:05:31Z</time>
      </trkpt>
      <trkpt lat="43.78631" lon="5.09755">
        <ele>170.6</ele>
        <time>2021-11-26T18:05:34Z</time>
      </trkpt>
      <trkpt lat="43.78625" lon="5.09753">
        <ele>169.6</ele>
        <time>2021-11-26T18:05:38Z</time>
      </trkpt>
      <trkpt lat="43.78617" lon="5.09752">
        <ele>168.4</ele>
        <time>2021-11-26T18:05:43Z</time>
      </trkpt>
      <trkpt lat="43.78609" lon="5.0975">
        <ele>167.2</ele>
        <time>2021-11-26T18:05:47Z</time>
      </trkpt>
      <trkpt lat="43.78604" lon="5.09749">
        <ele>166.2</ele>
        <time>2021-11-26T18:05:50Z</time>
      </trkpt>
      <trkpt lat="43.78599" lon="5.09744">
        <ele>165</ele>
        <time>2021-11-26T18:05:54Z</time>
      </trkpt>
      <trkpt lat="43.78595" lon="5.09742">
        <ele>163.8</ele>
        <time>2021-11-26T18:05:57Z</time>
      </trkpt>
      <trkpt lat="43.78582" lon="5.09735">
        <ele>162.6</ele>
        <time>2021-11-26T18:06:06Z</time>
      </trkpt>
      <trkpt lat="43.7858" lon="5.09734">
        <ele>162.4</ele>
        <time>2021-11-26T18:06:08Z</time>
      </trkpt>
      <trkpt lat="43.78577" lon="5.09734">
        <ele>161.6</ele>
        <time>2021-11-26T18:06:10Z</time>
      </trkpt>
      <trkpt lat="43.78572" lon="5.09733">
        <ele>160.6</ele>
        <time>2021-11-26T18:06:14Z</time>
      </trkpt>
      <trkpt lat="43.78568" lon="5.09734">
        <ele>160.2</ele>
        <time>2021-11-26T18:06:16Z</time>
      </trkpt>
      <trkpt lat="43.78564" lon="5.09732">
        <ele>159.6</ele>
        <time>2021-11-26T18:06:19Z</time>
      </trkpt>
      <trkpt lat="43.78554" lon="5.0973">
        <ele>158.4</ele>
        <time>2021-11-26T18:06:26Z</time>
      </trkpt>
      <trkpt lat="43.78545" lon="5.09726">
        <ele>157.2</ele>
        <time>2021-11-26T18:06:33Z</time>
      </trkpt>
      <trkpt lat="43.78544" lon="5.09726">
        <ele>157</ele>
        <time>2021-11-26T18:06:34Z</time>
      </trkpt>
      <trkpt lat="43.78541" lon="5.09726">
        <ele>156.4</ele>
        <time>2021-11-26T18:06:37Z</time>
      </trkpt>
      <trkpt lat="43.78539" lon="5.09726">
        <ele>156.2</ele>
        <time>2021-11-26T18:06:38Z</time>
      </trkpt>
      <trkpt lat="43.78537" lon="5.09726">
        <ele>155</ele>
        <time>2021-11-26T18:06:40Z</time>
      </trkpt>
      <trkpt lat="43.78532" lon="5.09727">
        <ele>154</ele>
        <time>2021-11-26T18:06:43Z</time>
      </trkpt>
      <trkpt lat="43.78527" lon="5.09729">
        <ele>152.8</ele>
        <time>2021-11-26T18:06:46Z</time>
      </trkpt>
      <trkpt lat="43.78526" lon="5.0973">
        <ele>152.4</ele>
        <time>2021-11-26T18:06:47Z</time>
      </trkpt>
      <trkpt lat="43.78523" lon="5.09732">
        <ele>151.6</ele>
        <time>2021-11-26T18:06:50Z</time>
      </trkpt>
      <trkpt lat="43.78517" lon="5.09736">
        <ele>150.6</ele>
        <time>2021-11-26T18:06:54Z</time>
      </trkpt>
      <trkpt lat="43.78512" lon="5.09739">
        <ele>149.8</ele>
        <time>2021-11-26T18:06:57Z</time>
      </trkpt>
      <trkpt lat="43.78509" lon="5.09742">
        <ele>149.6</ele>
        <time>2021-11-26T18:06:59Z</time>
      </trkpt>
      <trkpt lat="43.78505" lon="5.09746">
        <ele>149.2</ele>
        <time>2021-11-26T18:07:03Z</time>
      </trkpt>
      <trkpt lat="43.78501" lon="5.09752">
        <ele>148.4</ele>
        <time>2021-11-26T18:07:07Z</time>
      </trkpt>
      <trkpt lat="43.78498" lon="5.09754">
        <ele>148.2</ele>
        <time>2021-11-26T18:07:09Z</time>
      </trkpt>
      <trkpt lat="43.78493" lon="5.09753">
        <ele>147.6</ele>
        <time>2021-11-26T18:07:13Z</time>
      </trkpt>
      <trkpt lat="43.78493" lon="5.09754">
        <ele>147.4</ele>
        <time>2021-11-26T18:07:15Z</time>
      </trkpt>
      <trkpt lat="43.78493" lon="5.09766">
        <ele>147</ele>
        <time>2021-11-26T18:08:20Z</time>
      </trkpt>
      <trkpt lat="43.78493" lon="5.09778">
        <ele>146.6</ele>
        <time>2021-11-26T18:08:27Z</time>
      </trkpt>
      <trkpt lat="43.78493" lon="5.09781">
        <ele>146.6</ele>
        <time>2021-11-26T18:08:29Z</time>
      </trkpt>
      <trkpt lat="43.78495" lon="5.09789">
        <ele>146.6</ele>
        <time>2021-11-26T18:08:35Z</time>
      </trkpt>
      <trkpt lat="43.78497" lon="5.09791">
        <ele>146.8</ele>
        <time>2021-11-26T18:08:38Z</time>
      </trkpt>
      <trkpt lat="43.78499" lon="5.09796">
        <ele>147</ele>
        <time>2021-11-26T18:08:41Z</time>
      </trkpt>
      <trkpt lat="43.78503" lon="5.098">
        <ele>147.2</ele>
        <time>2021-11-26T18:08:46Z</time>
      </trkpt>
      <trkpt lat="43.78508" lon="5.09801">
        <ele>147</ele>
        <time>2021-11-26T18:08:50Z</time>
      </trkpt>
      <trkpt lat="43.78511" lon="5.09803">
        <ele>147.4</ele>
        <time>2021-11-26T18:08:52Z</time>
      </trkpt>
      <trkpt lat="43.78522" lon="5.09806">
        <ele>147.8</ele>
        <time>2021-11-26T18:08:59Z</time>
      </trkpt>
      <trkpt lat="43.78526" lon="5.09808">
        <ele>147.6</ele>
        <time>2021-11-26T18:09:01Z</time>
      </trkpt>
      <trkpt lat="43.7854" lon="5.09808">
        <ele>148.4</ele>
        <time>2021-11-26T18:09:10Z</time>
      </trkpt>
      <trkpt lat="43.78542" lon="5.09807">
        <ele>148.6</ele>
        <time>2021-11-26T18:09:11Z</time>
      </trkpt>
      <trkpt lat="43.78545" lon="5.09807">
        <ele>149</ele>
        <time>2021-11-26T18:09:14Z</time>
      </trkpt>
      <trkpt lat="43.78549" lon="5.09809">
        <ele>149.4</ele>
        <time>2021-11-26T18:09:17Z</time>
      </trkpt>
      <trkpt lat="43.78556" lon="5.09812">
        <ele>149.6</ele>
        <time>2021-11-26T18:09:20Z</time>
      </trkpt>
      <trkpt lat="43.78568" lon="5.09816">
        <ele>149.8</ele>
        <time>2021-11-26T18:09:27Z</time>
      </trkpt>
      <trkpt lat="43.78577" lon="5.09821">
        <ele>149.8</ele>
        <time>2021-11-26T18:09:32Z</time>
      </trkpt>
      <trkpt lat="43.78587" lon="5.09828">
        <ele>149.4</ele>
        <time>2021-11-26T18:09:39Z</time>
      </trkpt>
      <trkpt lat="43.78603" lon="5.09844">
        <ele>149.4</ele>
        <time>2021-11-26T18:09:50Z</time>
      </trkpt>
      <trkpt lat="43.78609" lon="5.09852">
        <ele>149.4</ele>
        <time>2021-11-26T18:09:54Z</time>
      </trkpt>
      <trkpt lat="43.78623" lon="5.09868">
        <ele>149</ele>
        <time>2021-11-26T18:10:03Z</time>
      </trkpt>
      <trkpt lat="43.78631" lon="5.09878">
        <ele>149.8</ele>
        <time>2021-11-26T18:10:10Z</time>
      </trkpt>
      <trkpt lat="43.78647" lon="5.09884">
        <ele>150</ele>
        <time>2021-11-26T18:10:24Z</time>
      </trkpt>
      <trkpt lat="43.7865" lon="5.09885">
        <ele>150</ele>
        <time>2021-11-26T18:10:26Z</time>
      </trkpt>
      <trkpt lat="43.78656" lon="5.09886">
        <ele>150.2</ele>
        <time>2021-11-26T18:10:30Z</time>
      </trkpt>
      <trkpt lat="43.7867" lon="5.09888">
        <ele>150.6</ele>
        <time>2021-11-26T18:10:39Z</time>
      </trkpt>
      <trkpt lat="43.78671" lon="5.09888">
        <ele>150.6</ele>
        <time>2021-11-26T18:10:40Z</time>
      </trkpt>
      <trkpt lat="43.78682" lon="5.0989">
        <ele>150.6</ele>
        <time>2021-11-26T18:10:46Z</time>
      </trkpt>
      <trkpt lat="43.78689" lon="5.0989">
        <ele>150.4</ele>
        <time>2021-11-26T18:10:50Z</time>
      </trkpt>
      <trkpt lat="43.78693" lon="5.09889">
        <ele>150.6</ele>
        <time>2021-11-26T18:10:53Z</time>
      </trkpt>
      <trkpt lat="43.78699" lon="5.09888">
        <ele>151</ele>
        <time>2021-11-26T18:10:57Z</time>
      </trkpt>
      <trkpt lat="43.78706" lon="5.09887">
        <ele>151.2</ele>
        <time>2021-11-26T18:11:01Z</time>
      </trkpt>
      <trkpt lat="43.78712" lon="5.09885">
        <ele>151.6</ele>
        <time>2021-11-26T18:11:05Z</time>
      </trkpt>
      <trkpt lat="43.78715" lon="5.09884">
        <ele>151.8</ele>
        <time>2021-11-26T18:11:06Z</time>
      </trkpt>
      <trkpt lat="43.7872" lon="5.09884">
        <ele>152.2</ele>
        <time>2021-11-26T18:11:08Z</time>
      </trkpt>
      <trkpt lat="43.78725" lon="5.09881">
        <ele>152.4</ele>
        <time>2021-11-26T18:11:12Z</time>
      </trkpt>
      <trkpt lat="43.78728" lon="5.0988">
        <ele>152.4</ele>
        <time>2021-11-26T18:11:16Z</time>
      </trkpt>
      <trkpt lat="43.78732" lon="5.0988">
        <ele>152.4</ele>
        <time>2021-11-26T18:11:20Z</time>
      </trkpt>
      <trkpt lat="43.78738" lon="5.0988">
        <ele>152.6</ele>
        <time>2021-11-26T18:11:24Z</time>
      </trkpt>
      <trkpt lat="43.78743" lon="5.09879">
        <ele>152.8</ele>
        <time>2021-11-26T18:11:26Z</time>
      </trkpt>
      <trkpt lat="43.78749" lon="5.09879">
        <ele>153</ele>
        <time>2021-11-26T18:11:29Z</time>
      </trkpt>
      <trkpt lat="43.78756" lon="5.09879">
        <ele>153</ele>
        <time>2021-11-26T18:11:33Z</time>
      </trkpt>
      <trkpt lat="43.78757" lon="5.09879">
        <ele>152.8</ele>
        <time>2021-11-26T18:11:34Z</time>
      </trkpt>
      <trkpt lat="43.78759" lon="5.09878">
        <ele>152.8</ele>
        <time>2021-11-26T18:11:36Z</time>
      </trkpt>
      <trkpt lat="43.78769" lon="5.09875">
        <ele>153.4</ele>
        <time>2021-11-26T18:11:40Z</time>
      </trkpt>
      <trkpt lat="43.7877" lon="5.09876">
        <ele>153.6</ele>
        <time>2021-11-26T18:11:41Z</time>
      </trkpt>
      <trkpt lat="43.78772" lon="5.09875">
        <ele>154</ele>
        <time>2021-11-26T18:11:42Z</time>
      </trkpt>
      <trkpt lat="43.78789" lon="5.0987">
        <ele>154.8</ele>
        <time>2021-11-26T18:11:51Z</time>
      </trkpt>
      <trkpt lat="43.78802" lon="5.09869">
        <ele>154.6</ele>
        <time>2021-11-26T18:11:58Z</time>
      </trkpt>
      <trkpt lat="43.78809" lon="5.09866">
        <ele>154.6</ele>
        <time>2021-11-26T18:12:03Z</time>
      </trkpt>
      <trkpt lat="43.78814" lon="5.09866">
        <ele>154.6</ele>
        <time>2021-11-26T18:12:06Z</time>
      </trkpt>
      <trkpt lat="43.78818" lon="5.09866">
        <ele>154.8</ele>
        <time>2021-11-26T18:12:08Z</time>
      </trkpt>
      <trkpt lat="43.78825" lon="5.09865">
        <ele>154.8</ele>
        <time>2021-11-26T18:12:13Z</time>
      </trkpt>
      <trkpt lat="43.78827" lon="5.09865">
        <ele>155</ele>
        <time>2021-11-26T18:12:15Z</time>
      </trkpt>
      <trkpt lat="43.78828" lon="5.09864">
        <ele>155</ele>
        <time>2021-11-26T18:12:16Z</time>
      </trkpt>
      <trkpt lat="43.78831" lon="5.09865">
        <ele>155</ele>
        <time>2021-11-26T18:12:18Z</time>
      </trkpt>
      <trkpt lat="43.78835" lon="5.09866">
        <ele>155.2</ele>
        <time>2021-11-26T18:12:20Z</time>
      </trkpt>
      <trkpt lat="43.7884" lon="5.09865">
        <ele>155.4</ele>
        <time>2021-11-26T18:12:23Z</time>
      </trkpt>
      <trkpt lat="43.78854" lon="5.09863">
        <ele>155.6</ele>
        <time>2021-11-26T18:12:28Z</time>
      </trkpt>
      <trkpt lat="43.78862" lon="5.09862">
        <ele>156</ele>
        <time>2021-11-26T18:12:32Z</time>
      </trkpt>
      <trkpt lat="43.78871" lon="5.09861">
        <ele>156.6</ele>
        <time>2021-11-26T18:12:38Z</time>
      </trkpt>
      <trkpt lat="43.78884" lon="5.0986">
        <ele>157</ele>
        <time>2021-11-26T18:12:45Z</time>
      </trkpt>
      <trkpt lat="43.78888" lon="5.0986">
        <ele>157</ele>
        <time>2021-11-26T18:12:47Z</time>
      </trkpt>
      <trkpt lat="43.78904" lon="5.09857">
        <ele>157.4</ele>
        <time>2021-11-26T18:12:56Z</time>
      </trkpt>
      <trkpt lat="43.78917" lon="5.09857">
        <ele>157.8</ele>
        <time>2021-11-26T18:13:05Z</time>
      </trkpt>
      <trkpt lat="43.78919" lon="5.09857">
        <ele>158</ele>
        <time>2021-11-26T18:13:07Z</time>
      </trkpt>
      <trkpt lat="43.78923" lon="5.09855">
        <ele>158</ele>
        <time>2021-11-26T18:13:10Z</time>
      </trkpt>
      <trkpt lat="43.78924" lon="5.09855">
        <ele>158.2</ele>
        <time>2021-11-26T18:13:11Z</time>
      </trkpt>
      <trkpt lat="43.7893" lon="5.09855">
        <ele>158.4</ele>
        <time>2021-11-26T18:13:16Z</time>
      </trkpt>
      <trkpt lat="43.78934" lon="5.09852">
        <ele>158.8</ele>
        <time>2021-11-26T18:13:19Z</time>
      </trkpt>
      <trkpt lat="43.78938" lon="5.09852">
        <ele>158.8</ele>
        <time>2021-11-26T18:13:21Z</time>
      </trkpt>
      <trkpt lat="43.78943" lon="5.09851">
        <ele>158.8</ele>
        <time>2021-11-26T18:13:23Z</time>
      </trkpt>
      <trkpt lat="43.7895" lon="5.0985">
        <ele>158.6</ele>
        <time>2021-11-26T18:13:28Z</time>
      </trkpt>
      <trkpt lat="43.78956" lon="5.09865">
        <ele>158.8</ele>
        <time>2021-11-26T18:13:53Z</time>
      </trkpt>
      <trkpt lat="43.78964" lon="5.09885">
        <ele>158.6</ele>
        <time>2021-11-26T18:14:04Z</time>
      </trkpt>
      <trkpt lat="43.78966" lon="5.09889">
        <ele>158.8</ele>
        <time>2021-11-26T18:14:06Z</time>
      </trkpt>
      <trkpt lat="43.78966" lon="5.09893">
        <ele>159.2</ele>
        <time>2021-11-26T18:14:08Z</time>
      </trkpt>
      <trkpt lat="43.78955" lon="5.09912">
        <ele>159.8</ele>
        <time>2021-11-26T18:14:19Z</time>
      </trkpt>
      <trkpt lat="43.78949" lon="5.09918">
        <ele>159.4</ele>
        <time>2021-11-26T18:14:23Z</time>
      </trkpt>
      <trkpt lat="43.78946" lon="5.09921">
        <ele>159.4</ele>
        <time>2021-11-26T18:14:25Z</time>
      </trkpt>
      <trkpt lat="43.78936" lon="5.09932">
        <ele>158.8</ele>
        <time>2021-11-26T18:14:33Z</time>
      </trkpt>
      <trkpt lat="43.78934" lon="5.09933">
        <ele>158.8</ele>
        <time>2021-11-26T18:14:35Z</time>
      </trkpt>
      <trkpt lat="43.78931" lon="5.09934">
        <ele>158.6</ele>
        <time>2021-11-26T18:14:37Z</time>
      </trkpt>
      <trkpt lat="43.78927" lon="5.09937">
        <ele>158.2</ele>
        <time>2021-11-26T18:14:40Z</time>
      </trkpt>
      <trkpt lat="43.78912" lon="5.09951">
        <ele>158.4</ele>
        <time>2021-11-26T18:14:50Z</time>
      </trkpt>
      <trkpt lat="43.78903" lon="5.09964">
        <ele>158.8</ele>
        <time>2021-11-26T18:14:58Z</time>
      </trkpt>
      <trkpt lat="43.78896" lon="5.09967">
        <ele>159.4</ele>
        <time>2021-11-26T18:15:03Z</time>
      </trkpt>
      <trkpt lat="43.78889" lon="5.09976">
        <ele>160.2</ele>
        <time>2021-11-26T18:15:09Z</time>
      </trkpt>
      <trkpt lat="43.78888" lon="5.09977">
        <ele>160.4</ele>
        <time>2021-11-26T18:15:10Z</time>
      </trkpt>
      <trkpt lat="43.78883" lon="5.09981">
        <ele>160.8</ele>
        <time>2021-11-26T18:15:14Z</time>
      </trkpt>
      <trkpt lat="43.78881" lon="5.09983">
        <ele>161.2</ele>
        <time>2021-11-26T18:15:16Z</time>
      </trkpt>
      <trkpt lat="43.78878" lon="5.09986">
        <ele>161.8</ele>
        <time>2021-11-26T18:15:18Z</time>
      </trkpt>
      <trkpt lat="43.78868" lon="5.09995">
        <ele>162.8</ele>
        <time>2021-11-26T18:15:24Z</time>
      </trkpt>
      <trkpt lat="43.78864" lon="5.10002">
        <ele>163.4</ele>
        <time>2021-11-26T18:15:27Z</time>
      </trkpt>
      <trkpt lat="43.78863" lon="5.10006">
        <ele>163.8</ele>
        <time>2021-11-26T18:15:29Z</time>
      </trkpt>
      <trkpt lat="43.78851" lon="5.10022">
        <ele>164</ele>
        <time>2021-11-26T18:15:38Z</time>
      </trkpt>
      <trkpt lat="43.78846" lon="5.10028">
        <ele>162.8</ele>
        <time>2021-11-26T18:15:42Z</time>
      </trkpt>
      <trkpt lat="43.78843" lon="5.10032">
        <ele>162.2</ele>
        <time>2021-11-26T18:15:44Z</time>
      </trkpt>
      <trkpt lat="43.7884" lon="5.10037">
        <ele>161.6</ele>
        <time>2021-11-26T18:15:46Z</time>
      </trkpt>
      <trkpt lat="43.78838" lon="5.10045">
        <ele>160</ele>
        <time>2021-11-26T18:15:49Z</time>
      </trkpt>
      <trkpt lat="43.78837" lon="5.10053">
        <ele>158.8</ele>
        <time>2021-11-26T18:15:52Z</time>
      </trkpt>
      <trkpt lat="43.78836" lon="5.10057">
        <ele>158.6</ele>
        <time>2021-11-26T18:15:54Z</time>
      </trkpt>
      <trkpt lat="43.78835" lon="5.10067">
        <ele>157.4</ele>
        <time>2021-11-26T18:15:59Z</time>
      </trkpt>
      <trkpt lat="43.78835" lon="5.10073">
        <ele>156.4</ele>
        <time>2021-11-26T18:16:02Z</time>
      </trkpt>
      <trkpt lat="43.78833" lon="5.10079">
        <ele>155.8</ele>
        <time>2021-11-26T18:16:05Z</time>
      </trkpt>
      <trkpt lat="43.78829" lon="5.10084">
        <ele>155.4</ele>
        <time>2021-11-26T18:16:08Z</time>
      </trkpt>
      <trkpt lat="43.78827" lon="5.10087">
        <ele>155</ele>
        <time>2021-11-26T18:16:10Z</time>
      </trkpt>
      <trkpt lat="43.7882" lon="5.10096">
        <ele>154.2</ele>
        <time>2021-11-26T18:16:15Z</time>
      </trkpt>
      <trkpt lat="43.78814" lon="5.10104">
        <ele>154</ele>
        <time>2021-11-26T18:16:20Z</time>
      </trkpt>
      <trkpt lat="43.78802" lon="5.10124">
        <ele>154.2</ele>
        <time>2021-11-26T18:16:31Z</time>
      </trkpt>
      <trkpt lat="43.78797" lon="5.10134">
        <ele>154.6</ele>
        <time>2021-11-26T18:16:35Z</time>
      </trkpt>
      <trkpt lat="43.78793" lon="5.10144">
        <ele>154.8</ele>
        <time>2021-11-26T18:16:38Z</time>
      </trkpt>
      <trkpt lat="43.78786" lon="5.10155">
        <ele>155.2</ele>
        <time>2021-11-26T18:16:42Z</time>
      </trkpt>
      <trkpt lat="43.78778" lon="5.10156">
        <ele>155.4</ele>
        <time>2021-11-26T18:16:46Z</time>
      </trkpt>
      <trkpt lat="43.78774" lon="5.10155">
        <ele>154.6</ele>
        <time>2021-11-26T18:16:49Z</time>
      </trkpt>
      <trkpt lat="43.78771" lon="5.10157">
        <ele>154.2</ele>
        <time>2021-11-26T18:16:52Z</time>
      </trkpt>
      <trkpt lat="43.78769" lon="5.10155">
        <ele>154.2</ele>
        <time>2021-11-26T18:16:54Z</time>
      </trkpt>
      <trkpt lat="43.78765" lon="5.10156">
        <ele>154.2</ele>
        <time>2021-11-26T18:16:58Z</time>
      </trkpt>
      <trkpt lat="43.78761" lon="5.10156">
        <ele>154</ele>
        <time>2021-11-26T18:17:01Z</time>
      </trkpt>
      <trkpt lat="43.78756" lon="5.10154">
        <ele>153.6</ele>
        <time>2021-11-26T18:17:05Z</time>
      </trkpt>
      <trkpt lat="43.78753" lon="5.10154">
        <ele>153.4</ele>
        <time>2021-11-26T18:17:07Z</time>
      </trkpt>
      <trkpt lat="43.78751" lon="5.10155">
        <ele>153.2</ele>
        <time>2021-11-26T18:17:09Z</time>
      </trkpt>
      <trkpt lat="43.78748" lon="5.10156">
        <ele>153.2</ele>
        <time>2021-11-26T18:17:11Z</time>
      </trkpt>
      <trkpt lat="43.7874" lon="5.10157">
        <ele>152.8</ele>
        <time>2021-11-26T18:17:17Z</time>
      </trkpt>
      <trkpt lat="43.78735" lon="5.10162">
        <ele>152.4</ele>
        <time>2021-11-26T18:17:21Z</time>
      </trkpt>
      <trkpt lat="43.78731" lon="5.10164">
        <ele>152.4</ele>
        <time>2021-11-26T18:17:23Z</time>
      </trkpt>
      <trkpt lat="43.78724" lon="5.10165">
        <ele>152.4</ele>
        <time>2021-11-26T18:17:27Z</time>
      </trkpt>
      <trkpt lat="43.78718" lon="5.10163">
        <ele>152.2</ele>
        <time>2021-11-26T18:17:30Z</time>
      </trkpt>
      <trkpt lat="43.78716" lon="5.10163">
        <ele>152.2</ele>
        <time>2021-11-26T18:17:31Z</time>
      </trkpt>
      <trkpt lat="43.78714" lon="5.10164">
        <ele>152.2</ele>
        <time>2021-11-26T18:17:33Z</time>
      </trkpt>
      <trkpt lat="43.78708" lon="5.10165">
        <ele>152.2</ele>
        <time>2021-11-26T18:17:38Z</time>
      </trkpt>
      <trkpt lat="43.78701" lon="5.10161">
        <ele>151</ele>
        <time>2021-11-26T18:17:43Z</time>
      </trkpt>
      <trkpt lat="43.78697" lon="5.10158">
        <ele>149.8</ele>
        <time>2021-11-26T18:17:46Z</time>
      </trkpt>
      <trkpt lat="43.78691" lon="5.10154">
        <ele>148.6</ele>
        <time>2021-11-26T18:17:50Z</time>
      </trkpt>
      <trkpt lat="43.78675" lon="5.10147">
        <ele>148.4</ele>
        <time>2021-11-26T18:18:03Z</time>
      </trkpt>
      <trkpt lat="43.78671" lon="5.1015">
        <ele>148.4</ele>
        <time>2021-11-26T18:18:06Z</time>
      </trkpt>
      <trkpt lat="43.78664" lon="5.10151">
        <ele>148.2</ele>
        <time>2021-11-26T18:18:11Z</time>
      </trkpt>
      <trkpt lat="43.78659" lon="5.10149">
        <ele>148.4</ele>
        <time>2021-11-26T18:18:14Z</time>
      </trkpt>
      <trkpt lat="43.78655" lon="5.10149">
        <ele>148.6</ele>
        <time>2021-11-26T18:18:16Z</time>
      </trkpt>
      <trkpt lat="43.78643" lon="5.10152">
        <ele>148.4</ele>
        <time>2021-11-26T18:18:24Z</time>
      </trkpt>
      <trkpt lat="43.7864" lon="5.10155">
        <ele>148.2</ele>
        <time>2021-11-26T18:18:33Z</time>
      </trkpt>
      <trkpt lat="43.78638" lon="5.10154">
        <ele>148.2</ele>
        <time>2021-11-26T18:18:35Z</time>
      </trkpt>
      <trkpt lat="43.78634" lon="5.10154">
        <ele>148.2</ele>
        <time>2021-11-26T18:18:39Z</time>
      </trkpt>
      <trkpt lat="43.78618" lon="5.1015">
        <ele>148.2</ele>
        <time>2021-11-26T18:19:10Z</time>
      </trkpt>
      <trkpt lat="43.78599" lon="5.10151">
        <ele>148.4</ele>
        <time>2021-11-26T18:19:23Z</time>
      </trkpt>
      <trkpt lat="43.78585" lon="5.10154">
        <ele>147.6</ele>
        <time>2021-11-26T18:19:34Z</time>
      </trkpt>
      <trkpt lat="43.78568" lon="5.10163">
        <ele>147.4</ele>
        <time>2021-11-26T18:19:45Z</time>
      </trkpt>
      <trkpt lat="43.78551" lon="5.10177">
        <ele>146.8</ele>
        <time>2021-11-26T18:19:56Z</time>
      </trkpt>
      <trkpt lat="43.78544" lon="5.10198">
        <ele>146.6</ele>
        <time>2021-11-26T18:20:06Z</time>
      </trkpt>
      <trkpt lat="43.78542" lon="5.10205">
        <ele>146.6</ele>
        <time>2021-11-26T18:20:09Z</time>
      </trkpt>
      <trkpt lat="43.78532" lon="5.10228">
        <ele>147.2</ele>
        <time>2021-11-26T18:20:19Z</time>
      </trkpt>
      <trkpt lat="43.78523" lon="5.10245">
        <ele>147.6</ele>
        <time>2021-11-26T18:20:27Z</time>
      </trkpt>
      <trkpt lat="43.7851" lon="5.10263">
        <ele>148.2</ele>
        <time>2021-11-26T18:20:37Z</time>
      </trkpt>
      <trkpt lat="43.78505" lon="5.10271">
        <ele>148.6</ele>
        <time>2021-11-26T18:20:41Z</time>
      </trkpt>
      <trkpt lat="43.78505" lon="5.10273">
        <ele>148.8</ele>
        <time>2021-11-26T18:20:42Z</time>
      </trkpt>
      <trkpt lat="43.78491" lon="5.10292">
        <ele>149.4</ele>
        <time>2021-11-26T18:20:56Z</time>
      </trkpt>
      <trkpt lat="43.78476" lon="5.10305">
        <ele>149.6</ele>
        <time>2021-11-26T18:21:06Z</time>
      </trkpt>
      <trkpt lat="43.78467" lon="5.1032">
        <ele>150.8</ele>
        <time>2021-11-26T18:21:14Z</time>
      </trkpt>
      <trkpt lat="43.78465" lon="5.10323">
        <ele>151</ele>
        <time>2021-11-26T18:21:16Z</time>
      </trkpt>
      <trkpt lat="43.78464" lon="5.10327">
        <ele>151.2</ele>
        <time>2021-11-26T18:21:18Z</time>
      </trkpt>
      <trkpt lat="43.78463" lon="5.10341">
        <ele>151.6</ele>
        <time>2021-11-26T18:21:25Z</time>
      </trkpt>
      <trkpt lat="43.78462" lon="5.10342">
        <ele>152</ele>
        <time>2021-11-26T18:21:26Z</time>
      </trkpt>
      <trkpt lat="43.78462" lon="5.10347">
        <ele>152.8</ele>
        <time>2021-11-26T18:21:28Z</time>
      </trkpt>
      <trkpt lat="43.7846" lon="5.10348">
        <ele>153.2</ele>
        <time>2021-11-26T18:21:29Z</time>
      </trkpt>
      <trkpt lat="43.78453" lon="5.10356">
        <ele>154.2</ele>
        <time>2021-11-26T18:21:35Z</time>
      </trkpt>
      <trkpt lat="43.7845" lon="5.1036">
        <ele>154.2</ele>
        <time>2021-11-26T18:21:37Z</time>
      </trkpt>
      <trkpt lat="43.78444" lon="5.10378">
        <ele>154.6</ele>
        <time>2021-11-26T18:21:45Z</time>
      </trkpt>
      <trkpt lat="43.78443" lon="5.10382">
        <ele>154.8</ele>
        <time>2021-11-26T18:21:47Z</time>
      </trkpt>
      <trkpt lat="43.78441" lon="5.10387">
        <ele>154.8</ele>
        <time>2021-11-26T18:21:50Z</time>
      </trkpt>
      <trkpt lat="43.7844" lon="5.1039">
        <ele>154.8</ele>
        <time>2021-11-26T18:21:52Z</time>
      </trkpt>
      <trkpt lat="43.78436" lon="5.10398">
        <ele>155.2</ele>
        <time>2021-11-26T18:21:56Z</time>
      </trkpt>
      <trkpt lat="43.78435" lon="5.10401">
        <ele>155.4</ele>
        <time>2021-11-26T18:21:57Z</time>
      </trkpt>
      <trkpt lat="43.78425" lon="5.10417">
        <ele>156.6</ele>
        <time>2021-11-26T18:22:07Z</time>
      </trkpt>
      <trkpt lat="43.78412" lon="5.1043">
        <ele>156.8</ele>
        <time>2021-11-26T18:22:18Z</time>
      </trkpt>
      <trkpt lat="43.78411" lon="5.10434">
        <ele>156.8</ele>
        <time>2021-11-26T18:22:20Z</time>
      </trkpt>
      <trkpt lat="43.78407" lon="5.10437">
        <ele>157.4</ele>
        <time>2021-11-26T18:22:23Z</time>
      </trkpt>
      <trkpt lat="43.78405" lon="5.10441">
        <ele>157.8</ele>
        <time>2021-11-26T18:22:25Z</time>
      </trkpt>
      <trkpt lat="43.78399" lon="5.10453">
        <ele>159</ele>
        <time>2021-11-26T18:22:31Z</time>
      </trkpt>
      <trkpt lat="43.78399" lon="5.10455">
        <ele>159.2</ele>
        <time>2021-11-26T18:22:32Z</time>
      </trkpt>
      <trkpt lat="43.78402" lon="5.10466">
        <ele>160.2</ele>
        <time>2021-11-26T18:22:36Z</time>
      </trkpt>
      <trkpt lat="43.78402" lon="5.10468">
        <ele>160.6</ele>
        <time>2021-11-26T18:22:37Z</time>
      </trkpt>
      <trkpt lat="43.78399" lon="5.10475">
        <ele>161</ele>
        <time>2021-11-26T18:22:41Z</time>
      </trkpt>
      <trkpt lat="43.78391" lon="5.10488">
        <ele>161.2</ele>
        <time>2021-11-26T18:22:49Z</time>
      </trkpt>
      <trkpt lat="43.78392" lon="5.10489">
        <ele>161.8</ele>
        <time>2021-11-26T18:22:52Z</time>
      </trkpt>
      <trkpt lat="43.78393" lon="5.10489">
        <ele>162.4</ele>
        <time>2021-11-26T18:22:55Z</time>
      </trkpt>
      <trkpt lat="43.78394" lon="5.10492">
        <ele>163.4</ele>
        <time>2021-11-26T18:22:59Z</time>
      </trkpt>
      <trkpt lat="43.78395" lon="5.10494">
        <ele>163.6</ele>
        <time>2021-11-26T18:23:00Z</time>
      </trkpt>
      <trkpt lat="43.78397" lon="5.10497">
        <ele>164</ele>
        <time>2021-11-26T18:23:02Z</time>
      </trkpt>
      <trkpt lat="43.78397" lon="5.10501">
        <ele>164.4</ele>
        <time>2021-11-26T18:23:04Z</time>
      </trkpt>
      <trkpt lat="43.78398" lon="5.10504">
        <ele>164.8</ele>
        <time>2021-11-26T18:23:05Z</time>
      </trkpt>
      <trkpt lat="43.78399" lon="5.10509">
        <ele>165.6</ele>
        <time>2021-11-26T18:23:07Z</time>
      </trkpt>
      <trkpt lat="43.784" lon="5.10512">
        <ele>166</ele>
        <time>2021-11-26T18:23:08Z</time>
      </trkpt>
      <trkpt lat="43.78401" lon="5.10518">
        <ele>166.8</ele>
        <time>2021-11-26T18:23:11Z</time>
      </trkpt>
      <trkpt lat="43.784" lon="5.10519">
        <ele>166.8</ele>
        <time>2021-11-26T18:23:12Z</time>
      </trkpt>
      <trkpt lat="43.78398" lon="5.10524">
        <ele>167.6</ele>
        <time>2021-11-26T18:23:16Z</time>
      </trkpt>
      <trkpt lat="43.78398" lon="5.10525">
        <ele>168</ele>
        <time>2021-11-26T18:23:17Z</time>
      </trkpt>
      <trkpt lat="43.78399" lon="5.10525">
        <ele>168.4</ele>
        <time>2021-11-26T18:23:18Z</time>
      </trkpt>
      <trkpt lat="43.78398" lon="5.1053">
        <ele>168.6</ele>
        <time>2021-11-26T18:23:22Z</time>
      </trkpt>
      <trkpt lat="43.78397" lon="5.10533">
        <ele>168.6</ele>
        <time>2021-11-26T18:23:26Z</time>
      </trkpt>
      <trkpt lat="43.78394" lon="5.10534">
        <ele>168.6</ele>
        <time>2021-11-26T18:23:30Z</time>
      </trkpt>
      <trkpt lat="43.78392" lon="5.10537">
        <ele>168.4</ele>
        <time>2021-11-26T18:23:33Z</time>
      </trkpt>
      <trkpt lat="43.78386" lon="5.10544">
        <ele>169.2</ele>
        <time>2021-11-26T18:23:38Z</time>
      </trkpt>
      <trkpt lat="43.7838" lon="5.10547">
        <ele>170.2</ele>
        <time>2021-11-26T18:23:42Z</time>
      </trkpt>
      <trkpt lat="43.78376" lon="5.10545">
        <ele>171.2</ele>
        <time>2021-11-26T18:23:46Z</time>
      </trkpt>
      <trkpt lat="43.78375" lon="5.10544">
        <ele>171.6</ele>
        <time>2021-11-26T18:23:47Z</time>
      </trkpt>
      <trkpt lat="43.78374" lon="5.10544">
        <ele>172</ele>
        <time>2021-11-26T18:23:48Z</time>
      </trkpt>
      <trkpt lat="43.78371" lon="5.10543">
        <ele>172.6</ele>
        <time>2021-11-26T18:23:50Z</time>
      </trkpt>
      <trkpt lat="43.78366" lon="5.10547">
        <ele>173.6</ele>
        <time>2021-11-26T18:23:54Z</time>
      </trkpt>
      <trkpt lat="43.78366" lon="5.1055">
        <ele>173.8</ele>
        <time>2021-11-26T18:23:55Z</time>
      </trkpt>
      <trkpt lat="43.78363" lon="5.10553">
        <ele>174</ele>
        <time>2021-11-26T18:23:57Z</time>
      </trkpt>
      <trkpt lat="43.78359" lon="5.10555">
        <ele>174.2</ele>
        <time>2021-11-26T18:24:00Z</time>
      </trkpt>
      <trkpt lat="43.78356" lon="5.10556">
        <ele>174.2</ele>
        <time>2021-11-26T18:24:02Z</time>
      </trkpt>
      <trkpt lat="43.78342" lon="5.1056">
        <ele>173.4</ele>
        <time>2021-11-26T18:24:12Z</time>
      </trkpt>
      <trkpt lat="43.78339" lon="5.10567">
        <ele>173.2</ele>
        <time>2021-11-26T18:24:16Z</time>
      </trkpt>
      <trkpt lat="43.78331" lon="5.10581">
        <ele>173.8</ele>
        <time>2021-11-26T18:24:24Z</time>
      </trkpt>
      <trkpt lat="43.78329" lon="5.10588">
        <ele>174.4</ele>
        <time>2021-11-26T18:24:28Z</time>
      </trkpt>
      <trkpt lat="43.78329" lon="5.10592">
        <ele>174.8</ele>
        <time>2021-11-26T18:24:30Z</time>
      </trkpt>
      <trkpt lat="43.78329" lon="5.10594">
        <ele>175.2</ele>
        <time>2021-11-26T18:24:31Z</time>
      </trkpt>
      <trkpt lat="43.78326" lon="5.10599">
        <ele>175.4</ele>
        <time>2021-11-26T18:24:34Z</time>
      </trkpt>
      <trkpt lat="43.78324" lon="5.10603">
        <ele>175.6</ele>
        <time>2021-11-26T18:24:36Z</time>
      </trkpt>
      <trkpt lat="43.78319" lon="5.10608">
        <ele>176</ele>
        <time>2021-11-26T18:24:39Z</time>
      </trkpt>
      <trkpt lat="43.78316" lon="5.10613">
        <ele>176.8</ele>
        <time>2021-11-26T18:24:42Z</time>
      </trkpt>
      <trkpt lat="43.78315" lon="5.10617">
        <ele>177.2</ele>
        <time>2021-11-26T18:24:44Z</time>
      </trkpt>
      <trkpt lat="43.78313" lon="5.10626">
        <ele>178.2</ele>
        <time>2021-11-26T18:24:49Z</time>
      </trkpt>
      <trkpt lat="43.78312" lon="5.10628">
        <ele>178.2</ele>
        <time>2021-11-26T18:24:50Z</time>
      </trkpt>
      <trkpt lat="43.78313" lon="5.1064">
        <ele>179</ele>
        <time>2021-11-26T18:24:55Z</time>
      </trkpt>
      <trkpt lat="43.78313" lon="5.10645">
        <ele>179</ele>
        <time>2021-11-26T18:24:57Z</time>
      </trkpt>
      <trkpt lat="43.78316" lon="5.10651">
        <ele>179.4</ele>
        <time>2021-11-26T18:25:01Z</time>
      </trkpt>
      <trkpt lat="43.78314" lon="5.10655">
        <ele>180.6</ele>
        <time>2021-11-26T18:25:05Z</time>
      </trkpt>
      <trkpt lat="43.78309" lon="5.10658">
        <ele>180.6</ele>
        <time>2021-11-26T18:25:09Z</time>
      </trkpt>
      <trkpt lat="43.78303" lon="5.10666">
        <ele>180.6</ele>
        <time>2021-11-26T18:25:14Z</time>
      </trkpt>
      <trkpt lat="43.783" lon="5.1067">
        <ele>180.6</ele>
        <time>2021-11-26T18:25:17Z</time>
      </trkpt>
      <trkpt lat="43.78288" lon="5.1069">
        <ele>181</ele>
        <time>2021-11-26T18:25:29Z</time>
      </trkpt>
      <trkpt lat="43.78287" lon="5.10692">
        <ele>181</ele>
        <time>2021-11-26T18:25:31Z</time>
      </trkpt>
      <trkpt lat="43.78291" lon="5.10704">
        <ele>181.8</ele>
        <time>2021-11-26T18:25:36Z</time>
      </trkpt>
      <trkpt lat="43.78298" lon="5.10714">
        <ele>183</ele>
        <time>2021-11-26T18:25:42Z</time>
      </trkpt>
      <trkpt lat="43.78298" lon="5.10715">
        <ele>183.2</ele>
        <time>2021-11-26T18:25:44Z</time>
      </trkpt>
      <trkpt lat="43.783" lon="5.10721">
        <ele>184</ele>
        <time>2021-11-26T18:25:51Z</time>
      </trkpt>
      <trkpt lat="43.78305" lon="5.10724">
        <ele>184</ele>
        <time>2021-11-26T18:25:55Z</time>
      </trkpt>
      <trkpt lat="43.78309" lon="5.10724">
        <ele>183.8</ele>
        <time>2021-11-26T18:25:58Z</time>
      </trkpt>
      <trkpt lat="43.78311" lon="5.10726">
        <ele>183</ele>
        <time>2021-11-26T18:26:01Z</time>
      </trkpt>
      <trkpt lat="43.78313" lon="5.10726">
        <ele>182.4</ele>
        <time>2021-11-26T18:26:03Z</time>
      </trkpt>
      <trkpt lat="43.78313" lon="5.10727">
        <ele>181.8</ele>
        <time>2021-11-26T18:26:05Z</time>
      </trkpt>
      <trkpt lat="43.78314" lon="5.10729">
        <ele>181.2</ele>
        <time>2021-11-26T18:26:07Z</time>
      </trkpt>
      <trkpt lat="43.78315" lon="5.1073">
        <ele>180.8</ele>
        <time>2021-11-26T18:26:08Z</time>
      </trkpt>
      <trkpt lat="43.78318" lon="5.10734">
        <ele>179.4</ele>
        <time>2021-11-26T18:26:11Z</time>
      </trkpt>
      <trkpt lat="43.7832" lon="5.10737">
        <ele>178</ele>
        <time>2021-11-26T18:26:14Z</time>
      </trkpt>
      <trkpt lat="43.7832" lon="5.10738">
        <ele>177.4</ele>
        <time>2021-11-26T18:26:15Z</time>
      </trkpt>
      <trkpt lat="43.7832" lon="5.1074">
        <ele>176.4</ele>
        <time>2021-11-26T18:26:17Z</time>
      </trkpt>
      <trkpt lat="43.78322" lon="5.10743">
        <ele>175.6</ele>
        <time>2021-11-26T18:26:19Z</time>
      </trkpt>
      <trkpt lat="43.78322" lon="5.10744">
        <ele>175</ele>
        <time>2021-11-26T18:26:20Z</time>
      </trkpt>
      <trkpt lat="43.78321" lon="5.10746">
        <ele>174.6</ele>
        <time>2021-11-26T18:26:21Z</time>
      </trkpt>
      <trkpt lat="43.78319" lon="5.10747">
        <ele>174</ele>
        <time>2021-11-26T18:26:22Z</time>
      </trkpt>
      <trkpt lat="43.78318" lon="5.1075">
        <ele>173.2</ele>
        <time>2021-11-26T18:26:24Z</time>
      </trkpt>
      <trkpt lat="43.78317" lon="5.10752">
        <ele>172.8</ele>
        <time>2021-11-26T18:26:25Z</time>
      </trkpt>
      <trkpt lat="43.78316" lon="5.10755">
        <ele>172.2</ele>
        <time>2021-11-26T18:26:27Z</time>
      </trkpt>
      <trkpt lat="43.78315" lon="5.10755">
        <ele>171.8</ele>
        <time>2021-11-26T18:26:28Z</time>
      </trkpt>
      <trkpt lat="43.78314" lon="5.10756">
        <ele>171.4</ele>
        <time>2021-11-26T18:26:29Z</time>
      </trkpt>
      <trkpt lat="43.78311" lon="5.1076">
        <ele>170.6</ele>
        <time>2021-11-26T18:26:32Z</time>
      </trkpt>
      <trkpt lat="43.783" lon="5.10767">
        <ele>169.6</ele>
        <time>2021-11-26T18:26:39Z</time>
      </trkpt>
      <trkpt lat="43.78299" lon="5.10768">
        <ele>169.2</ele>
        <time>2021-11-26T18:26:40Z</time>
      </trkpt>
      <trkpt lat="43.78295" lon="5.10769">
        <ele>168.4</ele>
        <time>2021-11-26T18:26:43Z</time>
      </trkpt>
      <trkpt lat="43.78291" lon="5.10773">
        <ele>167.2</ele>
        <time>2021-11-26T18:26:47Z</time>
      </trkpt>
      <trkpt lat="43.78283" lon="5.10776">
        <ele>166</ele>
        <time>2021-11-26T18:26:53Z</time>
      </trkpt>
      <trkpt lat="43.7828" lon="5.10778">
        <ele>165.4</ele>
        <time>2021-11-26T18:26:56Z</time>
      </trkpt>
      <trkpt lat="43.78277" lon="5.10781">
        <ele>164.8</ele>
        <time>2021-11-26T18:26:58Z</time>
      </trkpt>
      <trkpt lat="43.78272" lon="5.10783">
        <ele>163.4</ele>
        <time>2021-11-26T18:27:01Z</time>
      </trkpt>
      <trkpt lat="43.78268" lon="5.10786">
        <ele>162</ele>
        <time>2021-11-26T18:27:04Z</time>
      </trkpt>
      <trkpt lat="43.78263" lon="5.10788">
        <ele>161</ele>
        <time>2021-11-26T18:27:08Z</time>
      </trkpt>
      <trkpt lat="43.78262" lon="5.10789">
        <ele>160.8</ele>
        <time>2021-11-26T18:27:09Z</time>
      </trkpt>
      <trkpt lat="43.78258" lon="5.10791">
        <ele>159.8</ele>
        <time>2021-11-26T18:27:13Z</time>
      </trkpt>
      <trkpt lat="43.78253" lon="5.10794">
        <ele>158.6</ele>
        <time>2021-11-26T18:27:17Z</time>
      </trkpt>
      <trkpt lat="43.78248" lon="5.10798">
        <ele>157.4</ele>
        <time>2021-11-26T18:27:21Z</time>
      </trkpt>
      <trkpt lat="43.78243" lon="5.10802">
        <ele>156.8</ele>
        <time>2021-11-26T18:27:24Z</time>
      </trkpt>
      <trkpt lat="43.78237" lon="5.1081">
        <ele>156.4</ele>
        <time>2021-11-26T18:27:28Z</time>
      </trkpt>
      <trkpt lat="43.78232" lon="5.10817">
        <ele>155.2</ele>
        <time>2021-11-26T18:27:32Z</time>
      </trkpt>
      <trkpt lat="43.78225" lon="5.10825">
        <ele>154.2</ele>
        <time>2021-11-26T18:27:37Z</time>
      </trkpt>
      <trkpt lat="43.7822" lon="5.1083">
        <ele>153</ele>
        <time>2021-11-26T18:27:41Z</time>
      </trkpt>
      <trkpt lat="43.78214" lon="5.10835">
        <ele>152.2</ele>
        <time>2021-11-26T18:27:46Z</time>
      </trkpt>
      <trkpt lat="43.78213" lon="5.10833">
        <ele>152</ele>
        <time>2021-11-26T18:27:48Z</time>
      </trkpt>
      <trkpt lat="43.78212" lon="5.10835">
        <ele>152</ele>
        <time>2021-11-26T18:27:52Z</time>
      </trkpt>
      <trkpt lat="43.78207" lon="5.10833">
        <ele>151.8</ele>
        <time>2021-11-26T18:29:25Z</time>
      </trkpt>
      <trkpt lat="43.78211" lon="5.10854">
        <ele>152.4</ele>
        <time>2021-11-26T18:29:34Z</time>
      </trkpt>
      <trkpt lat="43.78213" lon="5.10857">
        <ele>152.6</ele>
        <time>2021-11-26T18:29:38Z</time>
      </trkpt>
      <trkpt lat="43.78214" lon="5.1086">
        <ele>152.8</ele>
        <time>2021-11-26T18:29:40Z</time>
      </trkpt>
      <trkpt lat="43.78218" lon="5.10866">
        <ele>153</ele>
        <time>2021-11-26T18:29:44Z</time>
      </trkpt>
      <trkpt lat="43.78219" lon="5.10869">
        <ele>153.2</ele>
        <time>2021-11-26T18:29:47Z</time>
      </trkpt>
      <trkpt lat="43.78219" lon="5.1087">
        <ele>153.6</ele>
        <time>2021-11-26T18:29:49Z</time>
      </trkpt>
      <trkpt lat="43.78222" lon="5.10877">
        <ele>154</ele>
        <time>2021-11-26T18:29:53Z</time>
      </trkpt>
      <trkpt lat="43.78225" lon="5.10881">
        <ele>154</ele>
        <time>2021-11-26T18:29:56Z</time>
      </trkpt>
      <trkpt lat="43.78233" lon="5.10903">
        <ele>154.8</ele>
        <time>2021-11-26T18:30:06Z</time>
      </trkpt>
      <trkpt lat="43.78231" lon="5.10908">
        <ele>154.8</ele>
        <time>2021-11-26T18:30:08Z</time>
      </trkpt>
      <trkpt lat="43.78219" lon="5.10924">
        <ele>154.8</ele>
        <time>2021-11-26T18:30:17Z</time>
      </trkpt>
      <trkpt lat="43.78218" lon="5.10929">
        <ele>155</ele>
        <time>2021-11-26T18:30:19Z</time>
      </trkpt>
      <trkpt lat="43.78217" lon="5.10933">
        <ele>155.2</ele>
        <time>2021-11-26T18:30:21Z</time>
      </trkpt>
      <trkpt lat="43.7821" lon="5.10956">
        <ele>156.2</ele>
        <time>2021-11-26T18:30:31Z</time>
      </trkpt>
      <trkpt lat="43.78209" lon="5.10958">
        <ele>156.4</ele>
        <time>2021-11-26T18:30:32Z</time>
      </trkpt>
      <trkpt lat="43.78206" lon="5.10962">
        <ele>156.6</ele>
        <time>2021-11-26T18:30:35Z</time>
      </trkpt>
      <trkpt lat="43.78198" lon="5.1097">
        <ele>157.2</ele>
        <time>2021-11-26T18:30:41Z</time>
      </trkpt>
      <trkpt lat="43.78195" lon="5.10976">
        <ele>157.8</ele>
        <time>2021-11-26T18:30:45Z</time>
      </trkpt>
      <trkpt lat="43.78192" lon="5.10984">
        <ele>158.4</ele>
        <time>2021-11-26T18:30:51Z</time>
      </trkpt>
      <trkpt lat="43.78186" lon="5.11006">
        <ele>159.4</ele>
        <time>2021-11-26T18:31:00Z</time>
      </trkpt>
      <trkpt lat="43.78184" lon="5.11015">
        <ele>160.2</ele>
        <time>2021-11-26T18:31:05Z</time>
      </trkpt>
      <trkpt lat="43.78181" lon="5.1102">
        <ele>160.4</ele>
        <time>2021-11-26T18:31:08Z</time>
      </trkpt>
      <trkpt lat="43.78178" lon="5.11025">
        <ele>160.4</ele>
        <time>2021-11-26T18:31:11Z</time>
      </trkpt>
      <trkpt lat="43.78176" lon="5.11026">
        <ele>160.6</ele>
        <time>2021-11-26T18:31:12Z</time>
      </trkpt>
      <trkpt lat="43.78166" lon="5.11032">
        <ele>161.6</ele>
        <time>2021-11-26T18:31:18Z</time>
      </trkpt>
      <trkpt lat="43.78163" lon="5.11034">
        <ele>162.6</ele>
        <time>2021-11-26T18:31:20Z</time>
      </trkpt>
      <trkpt lat="43.78157" lon="5.11039">
        <ele>163.6</ele>
        <time>2021-11-26T18:31:24Z</time>
      </trkpt>
      <trkpt lat="43.78152" lon="5.11045">
        <ele>165</ele>
        <time>2021-11-26T18:31:27Z</time>
      </trkpt>
      <trkpt lat="43.78148" lon="5.11053">
        <ele>166.2</ele>
        <time>2021-11-26T18:31:31Z</time>
      </trkpt>
      <trkpt lat="43.78149" lon="5.11056">
        <ele>167</ele>
        <time>2021-11-26T18:31:33Z</time>
      </trkpt>
      <trkpt lat="43.78149" lon="5.11058">
        <ele>167.4</ele>
        <time>2021-11-26T18:31:34Z</time>
      </trkpt>
      <trkpt lat="43.78148" lon="5.1106">
        <ele>168.2</ele>
        <time>2021-11-26T18:31:36Z</time>
      </trkpt>
      <trkpt lat="43.78147" lon="5.11061">
        <ele>168.6</ele>
        <time>2021-11-26T18:31:37Z</time>
      </trkpt>
      <trkpt lat="43.78145" lon="5.11062">
        <ele>169</ele>
        <time>2021-11-26T18:31:39Z</time>
      </trkpt>
      <trkpt lat="43.7814" lon="5.11064">
        <ele>169.8</ele>
        <time>2021-11-26T18:31:42Z</time>
      </trkpt>
      <trkpt lat="43.78137" lon="5.11065">
        <ele>171.2</ele>
        <time>2021-11-26T18:31:45Z</time>
      </trkpt>
      <trkpt lat="43.78136" lon="5.11067">
        <ele>172</ele>
        <time>2021-11-26T18:31:47Z</time>
      </trkpt>
      <trkpt lat="43.78135" lon="5.11068">
        <ele>172.2</ele>
        <time>2021-11-26T18:31:48Z</time>
      </trkpt>
      <trkpt lat="43.78117" lon="5.11079">
        <ele>173.4</ele>
        <time>2021-11-26T18:32:01Z</time>
      </trkpt>
      <trkpt lat="43.78112" lon="5.11079">
        <ele>174.4</ele>
        <time>2021-11-26T18:32:04Z</time>
      </trkpt>
      <trkpt lat="43.78099" lon="5.1108">
        <ele>175.6</ele>
        <time>2021-11-26T18:32:12Z</time>
      </trkpt>
      <trkpt lat="43.78095" lon="5.11081">
        <ele>176.6</ele>
        <time>2021-11-26T18:32:17Z</time>
      </trkpt>
      <trkpt lat="43.78091" lon="5.11081">
        <ele>178</ele>
        <time>2021-11-26T18:32:20Z</time>
      </trkpt>
      <trkpt lat="43.78087" lon="5.11082">
        <ele>179</ele>
        <time>2021-11-26T18:32:23Z</time>
      </trkpt>
      <trkpt lat="43.78082" lon="5.11083">
        <ele>180.2</ele>
        <time>2021-11-26T18:32:26Z</time>
      </trkpt>
      <trkpt lat="43.78076" lon="5.11082">
        <ele>181.4</ele>
        <time>2021-11-26T18:32:30Z</time>
      </trkpt>
      <trkpt lat="43.78074" lon="5.11081">
        <ele>181.8</ele>
        <time>2021-11-26T18:32:31Z</time>
      </trkpt>
      <trkpt lat="43.78069" lon="5.11078">
        <ele>182.6</ele>
        <time>2021-11-26T18:32:35Z</time>
      </trkpt>
      <trkpt lat="43.78064" lon="5.11077">
        <ele>183.8</ele>
        <time>2021-11-26T18:32:39Z</time>
      </trkpt>
      <trkpt lat="43.78059" lon="5.11075">
        <ele>185.2</ele>
        <time>2021-11-26T18:32:43Z</time>
      </trkpt>
      <trkpt lat="43.78052" lon="5.11074">
        <ele>186.2</ele>
        <time>2021-11-26T18:32:47Z</time>
      </trkpt>
      <trkpt lat="43.78045" lon="5.1107">
        <ele>187.4</ele>
        <time>2021-11-26T18:32:52Z</time>
      </trkpt>
      <trkpt lat="43.78038" lon="5.11069">
        <ele>188.4</ele>
        <time>2021-11-26T18:32:57Z</time>
      </trkpt>
      <trkpt lat="43.78029" lon="5.1107">
        <ele>189.6</ele>
        <time>2021-11-26T18:33:04Z</time>
      </trkpt>
      <trkpt lat="43.78023" lon="5.11069">
        <ele>189.8</ele>
        <time>2021-11-26T18:33:07Z</time>
      </trkpt>
      <trkpt lat="43.78022" lon="5.1107">
        <ele>189.8</ele>
        <time>2021-11-26T18:33:09Z</time>
      </trkpt>
      <trkpt lat="43.78025" lon="5.11068">
        <ele>189.6</ele>
        <time>2021-11-26T18:33:14Z</time>
      </trkpt>
      <trkpt lat="43.78031" lon="5.11065">
        <ele>189.8</ele>
        <time>2021-11-26T18:33:19Z</time>
      </trkpt>
      <trkpt lat="43.78036" lon="5.11066">
        <ele>189.6</ele>
        <time>2021-11-26T18:33:23Z</time>
      </trkpt>
      <trkpt lat="43.78039" lon="5.11065">
        <ele>189.2</ele>
        <time>2021-11-26T18:33:26Z</time>
      </trkpt>
      <trkpt lat="43.78038" lon="5.11062">
        <ele>189</ele>
        <time>2021-11-26T18:33:31Z</time>
      </trkpt>
      <trkpt lat="43.7802" lon="5.11067">
        <ele>189.6</ele>
        <time>2021-11-26T18:33:46Z</time>
      </trkpt>
      <trkpt lat="43.78011" lon="5.11083">
        <ele>188.8</ele>
        <time>2021-11-26T18:33:55Z</time>
      </trkpt>
      <trkpt lat="43.78003" lon="5.11103">
        <ele>190</ele>
        <time>2021-11-26T18:34:06Z</time>
      </trkpt>
      <trkpt lat="43.77999" lon="5.11106">
        <ele>190.6</ele>
        <time>2021-11-26T18:34:09Z</time>
      </trkpt>
      <trkpt lat="43.7799" lon="5.11123">
        <ele>191.6</ele>
        <time>2021-11-26T18:34:19Z</time>
      </trkpt>
      <trkpt lat="43.77986" lon="5.11132">
        <ele>192</ele>
        <time>2021-11-26T18:34:25Z</time>
      </trkpt>
      <trkpt lat="43.77981" lon="5.11141">
        <ele>192.8</ele>
        <time>2021-11-26T18:34:29Z</time>
      </trkpt>
      <trkpt lat="43.77977" lon="5.11148">
        <ele>193.4</ele>
        <time>2021-11-26T18:34:33Z</time>
      </trkpt>
      <trkpt lat="43.7797" lon="5.11157">
        <ele>193.8</ele>
        <time>2021-11-26T18:34:40Z</time>
      </trkpt>
      <trkpt lat="43.77963" lon="5.11171">
        <ele>195</ele>
        <time>2021-11-26T18:34:48Z</time>
      </trkpt>
      <trkpt lat="43.7796" lon="5.11178">
        <ele>195.6</ele>
        <time>2021-11-26T18:34:52Z</time>
      </trkpt>
      <trkpt lat="43.77958" lon="5.1118">
        <ele>196.4</ele>
        <time>2021-11-26T18:34:54Z</time>
      </trkpt>
      <trkpt lat="43.77953" lon="5.11184">
        <ele>197.8</ele>
        <time>2021-11-26T18:34:58Z</time>
      </trkpt>
      <trkpt lat="43.7795" lon="5.11187">
        <ele>199</ele>
        <time>2021-11-26T18:35:01Z</time>
      </trkpt>
      <trkpt lat="43.77948" lon="5.11192">
        <ele>200</ele>
        <time>2021-11-26T18:35:04Z</time>
      </trkpt>
      <trkpt lat="43.77948" lon="5.11195">
        <ele>200.6</ele>
        <time>2021-11-26T18:35:05Z</time>
      </trkpt>
      <trkpt lat="43.77948" lon="5.11203">
        <ele>201.8</ele>
        <time>2021-11-26T18:35:08Z</time>
      </trkpt>
      <trkpt lat="43.77947" lon="5.11207">
        <ele>202.4</ele>
        <time>2021-11-26T18:35:10Z</time>
      </trkpt>
      <trkpt lat="43.77941" lon="5.11212">
        <ele>203</ele>
        <time>2021-11-26T18:35:15Z</time>
      </trkpt>
      <trkpt lat="43.77937" lon="5.11217">
        <ele>204</ele>
        <time>2021-11-26T18:35:20Z</time>
      </trkpt>
      <trkpt lat="43.77932" lon="5.11225">
        <ele>205.4</ele>
        <time>2021-11-26T18:35:25Z</time>
      </trkpt>
      <trkpt lat="43.77924" lon="5.11233">
        <ele>206.2</ele>
        <time>2021-11-26T18:35:33Z</time>
      </trkpt>
      <trkpt lat="43.77923" lon="5.11238">
        <ele>206.4</ele>
        <time>2021-11-26T18:35:35Z</time>
      </trkpt>
      <trkpt lat="43.77923" lon="5.1124">
        <ele>206.6</ele>
        <time>2021-11-26T18:35:36Z</time>
      </trkpt>
      <trkpt lat="43.77918" lon="5.11252">
        <ele>207.6</ele>
        <time>2021-11-26T18:35:41Z</time>
      </trkpt>
      <trkpt lat="43.77913" lon="5.11264">
        <ele>208.8</ele>
        <time>2021-11-26T18:35:47Z</time>
      </trkpt>
      <trkpt lat="43.77907" lon="5.11271">
        <ele>209.4</ele>
        <time>2021-11-26T18:35:52Z</time>
      </trkpt>
      <trkpt lat="43.77906" lon="5.11275">
        <ele>209.6</ele>
        <time>2021-11-26T18:35:54Z</time>
      </trkpt>
      <trkpt lat="43.77904" lon="5.11276">
        <ele>209.8</ele>
        <time>2021-11-26T18:35:57Z</time>
      </trkpt>
      <trkpt lat="43.77904" lon="5.11277">
        <ele>209.8</ele>
        <time>2021-11-26T18:35:58Z</time>
      </trkpt>
      <trkpt lat="43.77902" lon="5.11278">
        <ele>209.6</ele>
        <time>2021-11-26T18:36:27Z</time>
      </trkpt>
      <trkpt lat="43.77898" lon="5.11283">
        <ele>208.8</ele>
        <time>2021-11-26T18:36:31Z</time>
      </trkpt>
      <trkpt lat="43.77897" lon="5.11284">
        <ele>208.4</ele>
        <time>2021-11-26T18:36:32Z</time>
      </trkpt>
      <trkpt lat="43.77894" lon="5.11289">
        <ele>207.4</ele>
        <time>2021-11-26T18:36:36Z</time>
      </trkpt>
      <trkpt lat="43.77893" lon="5.11289">
        <ele>207.2</ele>
        <time>2021-11-26T18:36:37Z</time>
      </trkpt>
      <trkpt lat="43.7789" lon="5.11292">
        <ele>206</ele>
        <time>2021-11-26T18:36:41Z</time>
      </trkpt>
      <trkpt lat="43.77888" lon="5.11295">
        <ele>205.2</ele>
        <time>2021-11-26T18:36:43Z</time>
      </trkpt>
      <trkpt lat="43.77887" lon="5.11295">
        <ele>204.6</ele>
        <time>2021-11-26T18:36:44Z</time>
      </trkpt>
      <trkpt lat="43.77884" lon="5.11299">
        <ele>203.2</ele>
        <time>2021-11-26T18:36:47Z</time>
      </trkpt>
      <trkpt lat="43.77883" lon="5.11306">
        <ele>202.2</ele>
        <time>2021-11-26T18:36:50Z</time>
      </trkpt>
      <trkpt lat="43.7788" lon="5.11312">
        <ele>200.8</ele>
        <time>2021-11-26T18:36:53Z</time>
      </trkpt>
      <trkpt lat="43.77879" lon="5.11322">
        <ele>200</ele>
        <time>2021-11-26T18:36:57Z</time>
      </trkpt>
      <trkpt lat="43.7788" lon="5.11324">
        <ele>199.8</ele>
        <time>2021-11-26T18:36:58Z</time>
      </trkpt>
      <trkpt lat="43.77881" lon="5.11336">
        <ele>198.8</ele>
        <time>2021-11-26T18:37:02Z</time>
      </trkpt>
      <trkpt lat="43.77879" lon="5.11355">
        <ele>198.2</ele>
        <time>2021-11-26T18:37:12Z</time>
      </trkpt>
      <trkpt lat="43.77881" lon="5.11361">
        <ele>198.2</ele>
        <time>2021-11-26T18:37:15Z</time>
      </trkpt>
      <trkpt lat="43.7788" lon="5.11364">
        <ele>198.2</ele>
        <time>2021-11-26T18:37:17Z</time>
      </trkpt>
      <trkpt lat="43.77871" lon="5.11368">
        <ele>198.2</ele>
        <time>2021-11-26T18:37:40Z</time>
      </trkpt>
      <trkpt lat="43.77869" lon="5.11374">
        <ele>198</ele>
        <time>2021-11-26T18:37:43Z</time>
      </trkpt>
      <trkpt lat="43.77866" lon="5.11384">
        <ele>197.6</ele>
        <time>2021-11-26T18:37:47Z</time>
      </trkpt>
      <trkpt lat="43.77858" lon="5.11392">
        <ele>196.4</ele>
        <time>2021-11-26T18:37:53Z</time>
      </trkpt>
      <trkpt lat="43.77858" lon="5.11402">
        <ele>196</ele>
        <time>2021-11-26T18:38:00Z</time>
      </trkpt>
      <trkpt lat="43.7786" lon="5.11407">
        <ele>196.4</ele>
        <time>2021-11-26T18:38:02Z</time>
      </trkpt>
      <trkpt lat="43.77862" lon="5.11414">
        <ele>197.2</ele>
        <time>2021-11-26T18:38:05Z</time>
      </trkpt>
      <trkpt lat="43.77861" lon="5.11417">
        <ele>197.4</ele>
        <time>2021-11-26T18:38:07Z</time>
      </trkpt>
      <trkpt lat="43.77859" lon="5.11421">
        <ele>197.6</ele>
        <time>2021-11-26T18:38:10Z</time>
      </trkpt>
      <trkpt lat="43.77855" lon="5.1143">
        <ele>196.4</ele>
        <time>2021-11-26T18:38:16Z</time>
      </trkpt>
      <trkpt lat="43.77854" lon="5.11433">
        <ele>195.6</ele>
        <time>2021-11-26T18:38:18Z</time>
      </trkpt>
      <trkpt lat="43.77853" lon="5.11434">
        <ele>195.4</ele>
        <time>2021-11-26T18:38:19Z</time>
      </trkpt>
      <trkpt lat="43.77853" lon="5.11435">
        <ele>195.2</ele>
        <time>2021-11-26T18:38:20Z</time>
      </trkpt>
      <trkpt lat="43.77849" lon="5.11438">
        <ele>195.2</ele>
        <time>2021-11-26T18:38:24Z</time>
      </trkpt>
      <trkpt lat="43.7784" lon="5.11447">
        <ele>195.2</ele>
        <time>2021-11-26T18:38:32Z</time>
      </trkpt>
      <trkpt lat="43.77834" lon="5.11449">
        <ele>195.6</ele>
        <time>2021-11-26T18:38:36Z</time>
      </trkpt>
      <trkpt lat="43.77819" lon="5.11449">
        <ele>196.4</ele>
        <time>2021-11-26T18:38:44Z</time>
      </trkpt>
      <trkpt lat="43.77814" lon="5.1145">
        <ele>197.4</ele>
        <time>2021-11-26T18:38:48Z</time>
      </trkpt>
      <trkpt lat="43.77806" lon="5.11448">
        <ele>198.4</ele>
        <time>2021-11-26T18:38:53Z</time>
      </trkpt>
      <trkpt lat="43.77797" lon="5.11445">
        <ele>199.6</ele>
        <time>2021-11-26T18:38:59Z</time>
      </trkpt>
      <trkpt lat="43.7778" lon="5.11438">
        <ele>200.6</ele>
        <time>2021-11-26T18:39:12Z</time>
      </trkpt>
      <trkpt lat="43.77779" lon="5.11437">
        <ele>200.8</ele>
        <time>2021-11-26T18:39:13Z</time>
      </trkpt>
      <trkpt lat="43.77774" lon="5.11427">
        <ele>200.6</ele>
        <time>2021-11-26T18:39:30Z</time>
      </trkpt>
      <trkpt lat="43.77771" lon="5.11424">
        <ele>199.6</ele>
        <time>2021-11-26T18:39:33Z</time>
      </trkpt>
      <trkpt lat="43.77766" lon="5.11421">
        <ele>198.4</ele>
        <time>2021-11-26T18:39:37Z</time>
      </trkpt>
      <trkpt lat="43.7776" lon="5.11417">
        <ele>197.4</ele>
        <time>2021-11-26T18:39:41Z</time>
      </trkpt>
      <trkpt lat="43.77756" lon="5.11416">
        <ele>196.2</ele>
        <time>2021-11-26T18:39:45Z</time>
      </trkpt>
      <trkpt lat="43.7775" lon="5.11416">
        <ele>195</ele>
        <time>2021-11-26T18:39:49Z</time>
      </trkpt>
      <trkpt lat="43.77743" lon="5.11415">
        <ele>193.8</ele>
        <time>2021-11-26T18:39:53Z</time>
      </trkpt>
      <trkpt lat="43.77737" lon="5.11414">
        <ele>192.6</ele>
        <time>2021-11-26T18:39:57Z</time>
      </trkpt>
      <trkpt lat="43.77724" lon="5.11419">
        <ele>191.4</ele>
        <time>2021-11-26T18:40:06Z</time>
      </trkpt>
      <trkpt lat="43.77723" lon="5.11419">
        <ele>191.2</ele>
        <time>2021-11-26T18:40:07Z</time>
      </trkpt>
      <trkpt lat="43.7772" lon="5.11421">
        <ele>190.2</ele>
        <time>2021-11-26T18:40:09Z</time>
      </trkpt>
      <trkpt lat="43.77717" lon="5.11424">
        <ele>189</ele>
        <time>2021-11-26T18:40:12Z</time>
      </trkpt>
      <trkpt lat="43.77716" lon="5.11427">
        <ele>188.4</ele>
        <time>2021-11-26T18:40:14Z</time>
      </trkpt>
      <trkpt lat="43.77714" lon="5.11431">
        <ele>187.8</ele>
        <time>2021-11-26T18:40:16Z</time>
      </trkpt>
      <trkpt lat="43.7771" lon="5.11436">
        <ele>186.4</ele>
        <time>2021-11-26T18:40:20Z</time>
      </trkpt>
      <trkpt lat="43.77706" lon="5.11439">
        <ele>185.2</ele>
        <time>2021-11-26T18:40:23Z</time>
      </trkpt>
      <trkpt lat="43.77704" lon="5.1144">
        <ele>184.6</ele>
        <time>2021-11-26T18:40:25Z</time>
      </trkpt>
      <trkpt lat="43.777" lon="5.11442">
        <ele>184.2</ele>
        <time>2021-11-26T18:40:27Z</time>
      </trkpt>
      <trkpt lat="43.77693" lon="5.11442">
        <ele>183</ele>
        <time>2021-11-26T18:40:31Z</time>
      </trkpt>
      <trkpt lat="43.77684" lon="5.1144">
        <ele>181.8</ele>
        <time>2021-11-26T18:40:36Z</time>
      </trkpt>
      <trkpt lat="43.77672" lon="5.11439">
        <ele>181.2</ele>
        <time>2021-11-26T18:40:43Z</time>
      </trkpt>
      <trkpt lat="43.77667" lon="5.11439">
        <ele>180.8</ele>
        <time>2021-11-26T18:40:45Z</time>
      </trkpt>
      <trkpt lat="43.77657" lon="5.11436">
        <ele>179.6</ele>
        <time>2021-11-26T18:40:51Z</time>
      </trkpt>
      <trkpt lat="43.77651" lon="5.11438">
        <ele>178.6</ele>
        <time>2021-11-26T18:40:55Z</time>
      </trkpt>
      <trkpt lat="43.77648" lon="5.11442">
        <ele>178.2</ele>
        <time>2021-11-26T18:40:58Z</time>
      </trkpt>
      <trkpt lat="43.7764" lon="5.11465">
        <ele>179.2</ele>
        <time>2021-11-26T18:41:11Z</time>
      </trkpt>
      <trkpt lat="43.77639" lon="5.11469">
        <ele>179.6</ele>
        <time>2021-11-26T18:41:13Z</time>
      </trkpt>
      <trkpt lat="43.77638" lon="5.11484">
        <ele>180.6</ele>
        <time>2021-11-26T18:41:19Z</time>
      </trkpt>
      <trkpt lat="43.77636" lon="5.11489">
        <ele>180.8</ele>
        <time>2021-11-26T18:41:21Z</time>
      </trkpt>
      <trkpt lat="43.77618" lon="5.11485">
        <ele>180</ele>
        <time>2021-11-26T18:41:32Z</time>
      </trkpt>
      <trkpt lat="43.77616" lon="5.11485">
        <ele>179.6</ele>
        <time>2021-11-26T18:41:33Z</time>
      </trkpt>
      <trkpt lat="43.77612" lon="5.11482">
        <ele>178.2</ele>
        <time>2021-11-26T18:41:36Z</time>
      </trkpt>
      <trkpt lat="43.77607" lon="5.11478">
        <ele>176.8</ele>
        <time>2021-11-26T18:41:40Z</time>
      </trkpt>
      <trkpt lat="43.77603" lon="5.11476">
        <ele>175.4</ele>
        <time>2021-11-26T18:41:43Z</time>
      </trkpt>
      <trkpt lat="43.77602" lon="5.11475">
        <ele>175</ele>
        <time>2021-11-26T18:41:44Z</time>
      </trkpt>
      <trkpt lat="43.77601" lon="5.11472">
        <ele>174.2</ele>
        <time>2021-11-26T18:41:46Z</time>
      </trkpt>
      <trkpt lat="43.77597" lon="5.11468">
        <ele>173</ele>
        <time>2021-11-26T18:41:49Z</time>
      </trkpt>
      <trkpt lat="43.77593" lon="5.11466">
        <ele>171.8</ele>
        <time>2021-11-26T18:41:52Z</time>
      </trkpt>
      <trkpt lat="43.77587" lon="5.11464">
        <ele>170.6</ele>
        <time>2021-11-26T18:41:56Z</time>
      </trkpt>
      <trkpt lat="43.77583" lon="5.11465">
        <ele>169.4</ele>
        <time>2021-11-26T18:41:59Z</time>
      </trkpt>
      <trkpt lat="43.77579" lon="5.11467">
        <ele>168</ele>
        <time>2021-11-26T18:42:02Z</time>
      </trkpt>
      <trkpt lat="43.77574" lon="5.11469">
        <ele>166.6</ele>
        <time>2021-11-26T18:42:05Z</time>
      </trkpt>
      <trkpt lat="43.77568" lon="5.11472">
        <ele>165.6</ele>
        <time>2021-11-26T18:42:09Z</time>
      </trkpt>
      <trkpt lat="43.77558" lon="5.11475">
        <ele>164.4</ele>
        <time>2021-11-26T18:42:16Z</time>
      </trkpt>
      <trkpt lat="43.77558" lon="5.11474">
        <ele>163.4</ele>
        <time>2021-11-26T18:42:20Z</time>
      </trkpt>
      <trkpt lat="43.7756" lon="5.11457">
        <ele>162.2</ele>
        <time>2021-11-26T18:43:01Z</time>
      </trkpt>
      <trkpt lat="43.77559" lon="5.11453">
        <ele>161.8</ele>
        <time>2021-11-26T18:43:03Z</time>
      </trkpt>
      <trkpt lat="43.77558" lon="5.11447">
        <ele>161.2</ele>
        <time>2021-11-26T18:43:07Z</time>
      </trkpt>
      <trkpt lat="43.77557" lon="5.11445">
        <ele>161</ele>
        <time>2021-11-26T18:43:08Z</time>
      </trkpt>
      <trkpt lat="43.77556" lon="5.11439">
        <ele>160</ele>
        <time>2021-11-26T18:43:12Z</time>
      </trkpt>
      <trkpt lat="43.77557" lon="5.11424">
        <ele>159</ele>
        <time>2021-11-26T18:43:18Z</time>
      </trkpt>
      <trkpt lat="43.77557" lon="5.11412">
        <ele>158</ele>
        <time>2021-11-26T18:43:24Z</time>
      </trkpt>
      <trkpt lat="43.77559" lon="5.11389">
        <ele>156.6</ele>
        <time>2021-11-26T18:43:35Z</time>
      </trkpt>
      <trkpt lat="43.77561" lon="5.1138">
        <ele>155.2</ele>
        <time>2021-11-26T18:43:39Z</time>
      </trkpt>
      <trkpt lat="43.77564" lon="5.11368">
        <ele>154.2</ele>
        <time>2021-11-26T18:43:44Z</time>
      </trkpt>
      <trkpt lat="43.77566" lon="5.1136">
        <ele>153</ele>
        <time>2021-11-26T18:43:49Z</time>
      </trkpt>
      <trkpt lat="43.77567" lon="5.11352">
        <ele>151.8</ele>
        <time>2021-11-26T18:43:53Z</time>
      </trkpt>
      <trkpt lat="43.77567" lon="5.11341">
        <ele>150.6</ele>
        <time>2021-11-26T18:43:58Z</time>
      </trkpt>
      <trkpt lat="43.77566" lon="5.11329">
        <ele>150.2</ele>
        <time>2021-11-26T18:44:03Z</time>
      </trkpt>
      <trkpt lat="43.77563" lon="5.1132">
        <ele>149.6</ele>
        <time>2021-11-26T18:44:07Z</time>
      </trkpt>
      <trkpt lat="43.77562" lon="5.11318">
        <ele>149.2</ele>
        <time>2021-11-26T18:44:08Z</time>
      </trkpt>
      <trkpt lat="43.77558" lon="5.11311">
        <ele>148.4</ele>
        <time>2021-11-26T18:44:11Z</time>
      </trkpt>
      <trkpt lat="43.77552" lon="5.11299">
        <ele>147.4</ele>
        <time>2021-11-26T18:44:17Z</time>
      </trkpt>
      <trkpt lat="43.77544" lon="5.11285">
        <ele>146</ele>
        <time>2021-11-26T18:44:25Z</time>
      </trkpt>
      <trkpt lat="43.7754" lon="5.11278">
        <ele>145</ele>
        <time>2021-11-26T18:44:29Z</time>
      </trkpt>
      <trkpt lat="43.77536" lon="5.11272">
        <ele>144.2</ele>
        <time>2021-11-26T18:44:32Z</time>
      </trkpt>
      <trkpt lat="43.77533" lon="5.11269">
        <ele>143.8</ele>
        <time>2021-11-26T18:44:34Z</time>
      </trkpt>
      <trkpt lat="43.77522" lon="5.11257">
        <ele>142.8</ele>
        <time>2021-11-26T18:44:43Z</time>
      </trkpt>
      <trkpt lat="43.77513" lon="5.11253">
        <ele>141.6</ele>
        <time>2021-11-26T18:44:48Z</time>
      </trkpt>
      <trkpt lat="43.77505" lon="5.1125">
        <ele>140.6</ele>
        <time>2021-11-26T18:44:52Z</time>
      </trkpt>
      <trkpt lat="43.77496" lon="5.11244">
        <ele>139.2</ele>
        <time>2021-11-26T18:44:58Z</time>
      </trkpt>
      <trkpt lat="43.77491" lon="5.1124">
        <ele>138</ele>
        <time>2021-11-26T18:45:02Z</time>
      </trkpt>
      <trkpt lat="43.77485" lon="5.11229">
        <ele>137</ele>
        <time>2021-11-26T18:45:08Z</time>
      </trkpt>
      <trkpt lat="43.7748" lon="5.11218">
        <ele>136</ele>
        <time>2021-11-26T18:45:13Z</time>
      </trkpt>
      <trkpt lat="43.77476" lon="5.11197">
        <ele>135</ele>
        <time>2021-11-26T18:45:23Z</time>
      </trkpt>
      <trkpt lat="43.77477" lon="5.11196">
        <ele>134.8</ele>
        <time>2021-11-26T18:45:24Z</time>
      </trkpt>
      <trkpt lat="43.77478" lon="5.11195">
        <ele>134.4</ele>
        <time>2021-11-26T18:45:25Z</time>
      </trkpt>
      <trkpt lat="43.77492" lon="5.11187">
        <ele>133.8</ele>
        <time>2021-11-26T18:45:35Z</time>
      </trkpt>
      <trkpt lat="43.77511" lon="5.11179">
        <ele>133.6</ele>
        <time>2021-11-26T18:45:46Z</time>
      </trkpt>
      <trkpt lat="43.77518" lon="5.11173">
        <ele>133.6</ele>
        <time>2021-11-26T18:45:51Z</time>
      </trkpt>
      <trkpt lat="43.7753" lon="5.11161">
        <ele>133.4</ele>
        <time>2021-11-26T18:46:01Z</time>
      </trkpt>
      <trkpt lat="43.77546" lon="5.11146">
        <ele>133.6</ele>
        <time>2021-11-26T18:46:14Z</time>
      </trkpt>
      <trkpt lat="43.77564" lon="5.11141">
        <ele>133.6</ele>
        <time>2021-11-26T18:46:25Z</time>
      </trkpt>
      <trkpt lat="43.77568" lon="5.11139">
        <ele>133.8</ele>
        <time>2021-11-26T18:46:28Z</time>
      </trkpt>
      <trkpt lat="43.77581" lon="5.11134">
        <ele>133.4</ele>
        <time>2021-11-26T18:46:35Z</time>
      </trkpt>
      <trkpt lat="43.77596" lon="5.1112">
        <ele>133.2</ele>
        <time>2021-11-26T18:46:46Z</time>
      </trkpt>
      <trkpt lat="43.77611" lon="5.11105">
        <ele>133.4</ele>
        <time>2021-11-26T18:46:57Z</time>
      </trkpt>
      <trkpt lat="43.77627" lon="5.11095">
        <ele>133.4</ele>
        <time>2021-11-26T18:47:06Z</time>
      </trkpt>
      <trkpt lat="43.77634" lon="5.1109">
        <ele>133.8</ele>
        <time>2021-11-26T18:47:11Z</time>
      </trkpt>
      <trkpt lat="43.77638" lon="5.11086">
        <ele>133.4</ele>
        <time>2021-11-26T18:47:20Z</time>
      </trkpt>
      <trkpt lat="43.77648" lon="5.11075">
        <ele>133.6</ele>
        <time>2021-11-26T18:47:28Z</time>
      </trkpt>
      <trkpt lat="43.77666" lon="5.11069">
        <ele>133.6</ele>
        <time>2021-11-26T18:47:38Z</time>
      </trkpt>
      <trkpt lat="43.77685" lon="5.11069">
        <ele>133.4</ele>
        <time>2021-11-26T18:47:47Z</time>
      </trkpt>
      <trkpt lat="43.77702" lon="5.11066">
        <ele>133</ele>
        <time>2021-11-26T18:47:59Z</time>
      </trkpt>
      <trkpt lat="43.77708" lon="5.11061">
        <ele>133.4</ele>
        <time>2021-11-26T18:48:04Z</time>
      </trkpt>
      <trkpt lat="43.77718" lon="5.11054">
        <ele>133.4</ele>
        <time>2021-11-26T18:48:10Z</time>
      </trkpt>
      <trkpt lat="43.77725" lon="5.1105">
        <ele>133.4</ele>
        <time>2021-11-26T18:48:15Z</time>
      </trkpt>
      <trkpt lat="43.77743" lon="5.11042">
        <ele>134</ele>
        <time>2021-11-26T18:48:27Z</time>
      </trkpt>
      <trkpt lat="43.77761" lon="5.11031">
        <ele>133.4</ele>
        <time>2021-11-26T18:48:39Z</time>
      </trkpt>
      <trkpt lat="43.77765" lon="5.11027">
        <ele>133.2</ele>
        <time>2021-11-26T18:48:42Z</time>
      </trkpt>
      <trkpt lat="43.77771" lon="5.11022">
        <ele>133</ele>
        <time>2021-11-26T18:48:46Z</time>
      </trkpt>
      <trkpt lat="43.77788" lon="5.11007">
        <ele>133.4</ele>
        <time>2021-11-26T18:48:57Z</time>
      </trkpt>
      <trkpt lat="43.77806" lon="5.10994">
        <ele>133.4</ele>
        <time>2021-11-26T18:49:09Z</time>
      </trkpt>
      <trkpt lat="43.77821" lon="5.10979">
        <ele>133.4</ele>
        <time>2021-11-26T18:49:20Z</time>
      </trkpt>
      <trkpt lat="43.77832" lon="5.10967">
        <ele>133.6</ele>
        <time>2021-11-26T18:49:28Z</time>
      </trkpt>
      <trkpt lat="43.77844" lon="5.10949">
        <ele>133.4</ele>
        <time>2021-11-26T18:49:40Z</time>
      </trkpt>
      <trkpt lat="43.77845" lon="5.10946">
        <ele>133.6</ele>
        <time>2021-11-26T18:49:42Z</time>
      </trkpt>
      <trkpt lat="43.7785" lon="5.10939">
        <ele>134</ele>
        <time>2021-11-26T18:49:47Z</time>
      </trkpt>
      <trkpt lat="43.77852" lon="5.10935">
        <ele>134</ele>
        <time>2021-11-26T18:49:49Z</time>
      </trkpt>
      <trkpt lat="43.77858" lon="5.10925">
        <ele>133.4</ele>
        <time>2021-11-26T18:49:54Z</time>
      </trkpt>
      <trkpt lat="43.77868" lon="5.10902">
        <ele>133.4</ele>
        <time>2021-11-26T18:50:04Z</time>
      </trkpt>
      <trkpt lat="43.77881" lon="5.10885">
        <ele>133.8</ele>
        <time>2021-11-26T18:50:14Z</time>
      </trkpt>
      <trkpt lat="43.77886" lon="5.10869">
        <ele>133.4</ele>
        <time>2021-11-26T18:50:21Z</time>
      </trkpt>
      <trkpt lat="43.77893" lon="5.10851">
        <ele>133.6</ele>
        <time>2021-11-26T18:50:31Z</time>
      </trkpt>
      <trkpt lat="43.77905" lon="5.10829">
        <ele>133.2</ele>
        <time>2021-11-26T18:50:43Z</time>
      </trkpt>
      <trkpt lat="43.77918" lon="5.10811">
        <ele>133.4</ele>
        <time>2021-11-26T18:50:54Z</time>
      </trkpt>
      <trkpt lat="43.77929" lon="5.1079">
        <ele>133.6</ele>
        <time>2021-11-26T18:51:05Z</time>
      </trkpt>
      <trkpt lat="43.77942" lon="5.10771">
        <ele>133.4</ele>
        <time>2021-11-26T18:51:17Z</time>
      </trkpt>
      <trkpt lat="43.77954" lon="5.10752">
        <ele>133.4</ele>
        <time>2021-11-26T18:51:29Z</time>
      </trkpt>
      <trkpt lat="43.77963" lon="5.1073">
        <ele>133.6</ele>
        <time>2021-11-26T18:51:40Z</time>
      </trkpt>
      <trkpt lat="43.77975" lon="5.1071">
        <ele>133.4</ele>
        <time>2021-11-26T18:51:51Z</time>
      </trkpt>
      <trkpt lat="43.77987" lon="5.10689">
        <ele>133.6</ele>
        <time>2021-11-26T18:52:03Z</time>
      </trkpt>
      <trkpt lat="43.77991" lon="5.10684">
        <ele>133.6</ele>
        <time>2021-11-26T18:52:07Z</time>
      </trkpt>
      <trkpt lat="43.78002" lon="5.10662">
        <ele>133.4</ele>
        <time>2021-11-26T18:52:19Z</time>
      </trkpt>
      <trkpt lat="43.78009" lon="5.10641">
        <ele>133.6</ele>
        <time>2021-11-26T18:52:31Z</time>
      </trkpt>
      <trkpt lat="43.7801" lon="5.10638">
        <ele>133.6</ele>
        <time>2021-11-26T18:52:35Z</time>
      </trkpt>
      <trkpt lat="43.78018" lon="5.10646">
        <ele>133.6</ele>
        <time>2021-11-26T18:52:57Z</time>
      </trkpt>
      <trkpt lat="43.78023" lon="5.10649">
        <ele>134.2</ele>
        <time>2021-11-26T18:53:01Z</time>
      </trkpt>
      <trkpt lat="43.78026" lon="5.10649">
        <ele>134.2</ele>
        <time>2021-11-26T18:53:03Z</time>
      </trkpt>
      <trkpt lat="43.78027" lon="5.10645">
        <ele>134.4</ele>
        <time>2021-11-26T18:53:05Z</time>
      </trkpt>
      <trkpt lat="43.7803" lon="5.10618">
        <ele>134.2</ele>
        <time>2021-11-26T18:53:17Z</time>
      </trkpt>
      <trkpt lat="43.78037" lon="5.10594">
        <ele>134.4</ele>
        <time>2021-11-26T18:53:27Z</time>
      </trkpt>
      <trkpt lat="43.7804" lon="5.1059">
        <ele>134.4</ele>
        <time>2021-11-26T18:53:30Z</time>
      </trkpt>
      <trkpt lat="43.78055" lon="5.10583">
        <ele>134.8</ele>
        <time>2021-11-26T18:53:42Z</time>
      </trkpt>
      <trkpt lat="43.78063" lon="5.10578">
        <ele>135.8</ele>
        <time>2021-11-26T18:53:47Z</time>
      </trkpt>
      <trkpt lat="43.78072" lon="5.10573">
        <ele>137</ele>
        <time>2021-11-26T18:53:54Z</time>
      </trkpt>
      <trkpt lat="43.78074" lon="5.10573">
        <ele>137.2</ele>
        <time>2021-11-26T18:53:57Z</time>
      </trkpt>
      <trkpt lat="43.78076" lon="5.1057">
        <ele>138.2</ele>
        <time>2021-11-26T18:54:01Z</time>
      </trkpt>
      <trkpt lat="43.7808" lon="5.1057">
        <ele>139.4</ele>
        <time>2021-11-26T18:54:16Z</time>
      </trkpt>
      <trkpt lat="43.78085" lon="5.10568">
        <ele>140.4</ele>
        <time>2021-11-26T18:54:23Z</time>
      </trkpt>
      <trkpt lat="43.78086" lon="5.10568">
        <ele>141.4</ele>
        <time>2021-11-26T18:54:30Z</time>
      </trkpt>
      <trkpt lat="43.78091" lon="5.10563">
        <ele>142.4</ele>
        <time>2021-11-26T18:54:43Z</time>
      </trkpt>
      <trkpt lat="43.78094" lon="5.10557">
        <ele>141.8</ele>
        <time>2021-11-26T18:54:53Z</time>
      </trkpt>
      <trkpt lat="43.78096" lon="5.10554">
        <ele>141.8</ele>
        <time>2021-11-26T18:54:56Z</time>
      </trkpt>
      <trkpt lat="43.781" lon="5.1055">
        <ele>142</ele>
        <time>2021-11-26T18:55:02Z</time>
      </trkpt>
      <trkpt lat="43.78105" lon="5.1055">
        <ele>142.8</ele>
        <time>2021-11-26T18:55:08Z</time>
      </trkpt>
      <trkpt lat="43.78106" lon="5.10551">
        <ele>143.2</ele>
        <time>2021-11-26T18:55:10Z</time>
      </trkpt>
      <trkpt lat="43.78106" lon="5.10552">
        <ele>143.6</ele>
        <time>2021-11-26T18:55:11Z</time>
      </trkpt>
      <trkpt lat="43.78111" lon="5.10555">
        <ele>144.4</ele>
        <time>2021-11-26T18:55:14Z</time>
      </trkpt>
      <trkpt lat="43.78113" lon="5.10557">
        <ele>144.6</ele>
        <time>2021-11-26T18:55:16Z</time>
      </trkpt>
      <trkpt lat="43.78113" lon="5.10558">
        <ele>144.8</ele>
        <time>2021-11-26T18:55:17Z</time>
      </trkpt>
      <trkpt lat="43.78114" lon="5.10558">
        <ele>145</ele>
        <time>2021-11-26T18:55:18Z</time>
      </trkpt>
      <trkpt lat="43.78115" lon="5.10559">
        <ele>146.2</ele>
        <time>2021-11-26T18:55:21Z</time>
      </trkpt>
      <trkpt lat="43.78116" lon="5.1056">
        <ele>146.6</ele>
        <time>2021-11-26T18:55:22Z</time>
      </trkpt>
      <trkpt lat="43.78119" lon="5.1056">
        <ele>147.6</ele>
        <time>2021-11-26T18:55:24Z</time>
      </trkpt>
      <trkpt lat="43.78121" lon="5.10563">
        <ele>149</ele>
        <time>2021-11-26T18:55:27Z</time>
      </trkpt>
      <trkpt lat="43.78122" lon="5.10566">
        <ele>150.2</ele>
        <time>2021-11-26T18:55:30Z</time>
      </trkpt>
      <trkpt lat="43.78123" lon="5.10569">
        <ele>150.8</ele>
        <time>2021-11-26T18:55:33Z</time>
      </trkpt>
      <trkpt lat="43.78127" lon="5.10568">
        <ele>151.2</ele>
        <time>2021-11-26T18:55:38Z</time>
      </trkpt>
      <trkpt lat="43.78127" lon="5.10569">
        <ele>151.2</ele>
        <time>2021-11-26T18:55:39Z</time>
      </trkpt>
      <trkpt lat="43.7813" lon="5.10569">
        <ele>151.6</ele>
        <time>2021-11-26T18:55:43Z</time>
      </trkpt>
      <trkpt lat="43.78136" lon="5.10573">
        <ele>152.4</ele>
        <time>2021-11-26T18:55:54Z</time>
      </trkpt>
      <trkpt lat="43.7814" lon="5.10575">
        <ele>153.4</ele>
        <time>2021-11-26T18:55:58Z</time>
      </trkpt>
      <trkpt lat="43.78141" lon="5.10575">
        <ele>153.6</ele>
        <time>2021-11-26T18:55:59Z</time>
      </trkpt>
      <trkpt lat="43.78142" lon="5.10576">
        <ele>153.6</ele>
        <time>2021-11-26T18:56:00Z</time>
      </trkpt>
      <trkpt lat="43.78145" lon="5.10579">
        <ele>154</ele>
        <time>2021-11-26T18:56:03Z</time>
      </trkpt>
      <trkpt lat="43.78146" lon="5.1058">
        <ele>154.2</ele>
        <time>2021-11-26T18:56:05Z</time>
      </trkpt>
      <trkpt lat="43.78149" lon="5.10577">
        <ele>154.2</ele>
        <time>2021-11-26T18:56:12Z</time>
      </trkpt>
      <trkpt lat="43.78153" lon="5.10573">
        <ele>154.4</ele>
        <time>2021-11-26T18:56:17Z</time>
      </trkpt>
      <trkpt lat="43.78154" lon="5.10574">
        <ele>154.6</ele>
        <time>2021-11-26T18:56:19Z</time>
      </trkpt>
      <trkpt lat="43.78169" lon="5.10564">
        <ele>155.8</ele>
        <time>2021-11-26T18:56:36Z</time>
      </trkpt>
      <trkpt lat="43.78172" lon="5.10562">
        <ele>156</ele>
        <time>2021-11-26T18:56:39Z</time>
      </trkpt>
      <trkpt lat="43.78174" lon="5.1056">
        <ele>155.8</ele>
        <time>2021-11-26T18:56:41Z</time>
      </trkpt>
      <trkpt lat="43.7818" lon="5.10557">
        <ele>156</ele>
        <time>2021-11-26T18:56:49Z</time>
      </trkpt>
      <trkpt lat="43.78182" lon="5.10564">
        <ele>156.4</ele>
        <time>2021-11-26T18:57:09Z</time>
      </trkpt>
      <trkpt lat="43.7818" lon="5.10559">
        <ele>156.4</ele>
        <time>2021-11-26T18:57:46Z</time>
      </trkpt>
      <trkpt lat="43.78186" lon="5.10554">
        <ele>156.8</ele>
        <time>2021-11-26T18:57:50Z</time>
      </trkpt>
      <trkpt lat="43.78198" lon="5.10545">
        <ele>157.8</ele>
        <time>2021-11-26T18:57:58Z</time>
      </trkpt>
      <trkpt lat="43.78212" lon="5.10537">
        <ele>159</ele>
        <time>2021-11-26T18:58:06Z</time>
      </trkpt>
      <trkpt lat="43.7822" lon="5.10533">
        <ele>160.2</ele>
        <time>2021-11-26T18:58:11Z</time>
      </trkpt>
      <trkpt lat="43.78237" lon="5.10523">
        <ele>161</ele>
        <time>2021-11-26T18:58:23Z</time>
      </trkpt>
      <trkpt lat="43.78242" lon="5.1052">
        <ele>161.4</ele>
        <time>2021-11-26T18:58:26Z</time>
      </trkpt>
      <trkpt lat="43.78257" lon="5.10507">
        <ele>162.4</ele>
        <time>2021-11-26T18:58:37Z</time>
      </trkpt>
      <trkpt lat="43.78261" lon="5.10504">
        <ele>162.4</ele>
        <time>2021-11-26T18:58:41Z</time>
      </trkpt>
      <trkpt lat="43.78265" lon="5.10504">
        <ele>162.2</ele>
        <time>2021-11-26T18:58:46Z</time>
      </trkpt>
      <trkpt lat="43.7827" lon="5.10502">
        <ele>163.2</ele>
        <time>2021-11-26T18:58:50Z</time>
      </trkpt>
      <trkpt lat="43.78275" lon="5.10496">
        <ele>163.4</ele>
        <time>2021-11-26T18:58:55Z</time>
      </trkpt>
      <trkpt lat="43.78279" lon="5.10496">
        <ele>163.4</ele>
        <time>2021-11-26T18:58:57Z</time>
      </trkpt>
      <trkpt lat="43.78282" lon="5.10496">
        <ele>163.6</ele>
        <time>2021-11-26T18:58:59Z</time>
      </trkpt>
      <trkpt lat="43.78284" lon="5.10495">
        <ele>163.8</ele>
        <time>2021-11-26T18:59:02Z</time>
      </trkpt>
      <trkpt lat="43.78288" lon="5.10492">
        <ele>163.8</ele>
        <time>2021-11-26T18:59:07Z</time>
      </trkpt>
      <trkpt lat="43.7829" lon="5.1049">
        <ele>164</ele>
        <time>2021-11-26T18:59:09Z</time>
      </trkpt>
      <trkpt lat="43.78295" lon="5.10487">
        <ele>164.4</ele>
        <time>2021-11-26T18:59:12Z</time>
      </trkpt>
      <trkpt lat="43.7831" lon="5.10473">
        <ele>164.8</ele>
        <time>2021-11-26T18:59:26Z</time>
      </trkpt>
      <trkpt lat="43.78315" lon="5.10472">
        <ele>163.2</ele>
        <time>2021-11-26T18:59:30Z</time>
      </trkpt>
      <trkpt lat="43.78316" lon="5.10472">
        <ele>163</ele>
        <time>2021-11-26T18:59:31Z</time>
      </trkpt>
      <trkpt lat="43.78319" lon="5.1047">
        <ele>162</ele>
        <time>2021-11-26T18:59:34Z</time>
      </trkpt>
      <trkpt lat="43.78323" lon="5.10469">
        <ele>161.4</ele>
        <time>2021-11-26T18:59:36Z</time>
      </trkpt>
      <trkpt lat="43.78325" lon="5.10469">
        <ele>161</ele>
        <time>2021-11-26T18:59:37Z</time>
      </trkpt>
      <trkpt lat="43.78338" lon="5.10461">
        <ele>160</ele>
        <time>2021-11-26T18:59:48Z</time>
      </trkpt>
      <trkpt lat="43.78355" lon="5.10452">
        <ele>159.4</ele>
        <time>2021-11-26T19:00:00Z</time>
      </trkpt>
      <trkpt lat="43.78371" lon="5.10443">
        <ele>159.2</ele>
        <time>2021-11-26T19:00:09Z</time>
      </trkpt>
      <trkpt lat="43.78383" lon="5.1044">
        <ele>159</ele>
        <time>2021-11-26T19:00:15Z</time>
      </trkpt>
      <trkpt lat="43.78399" lon="5.1043">
        <ele>159.6</ele>
        <time>2021-11-26T19:00:27Z</time>
      </trkpt>
      <trkpt lat="43.78408" lon="5.1042">
        <ele>159</ele>
        <time>2021-11-26T19:00:34Z</time>
      </trkpt>
      <trkpt lat="43.78417" lon="5.10405">
        <ele>157.8</ele>
        <time>2021-11-26T19:00:43Z</time>
      </trkpt>
      <trkpt lat="43.78418" lon="5.10402">
        <ele>156.8</ele>
        <time>2021-11-26T19:00:45Z</time>
      </trkpt>
      <trkpt lat="43.78419" lon="5.10401">
        <ele>156.4</ele>
        <time>2021-11-26T19:00:46Z</time>
      </trkpt>
      <trkpt lat="43.7842" lon="5.104">
        <ele>156</ele>
        <time>2021-11-26T19:00:47Z</time>
      </trkpt>
      <trkpt lat="43.78422" lon="5.10397">
        <ele>155.2</ele>
        <time>2021-11-26T19:00:49Z</time>
      </trkpt>
      <trkpt lat="43.78423" lon="5.10396">
        <ele>155</ele>
        <time>2021-11-26T19:00:50Z</time>
      </trkpt>
      <trkpt lat="43.78426" lon="5.10392">
        <ele>154.8</ele>
        <time>2021-11-26T19:00:53Z</time>
      </trkpt>
      <trkpt lat="43.78438" lon="5.10376">
        <ele>154.2</ele>
        <time>2021-11-26T19:01:03Z</time>
      </trkpt>
      <trkpt lat="43.7844" lon="5.10372">
        <ele>154.2</ele>
        <time>2021-11-26T19:01:06Z</time>
      </trkpt>
      <trkpt lat="43.78442" lon="5.10369">
        <ele>154</ele>
        <time>2021-11-26T19:01:08Z</time>
      </trkpt>
      <trkpt lat="43.78445" lon="5.10364">
        <ele>154</ele>
        <time>2021-11-26T19:01:11Z</time>
      </trkpt>
      <trkpt lat="43.78455" lon="5.10341">
        <ele>153.6</ele>
        <time>2021-11-26T19:01:25Z</time>
      </trkpt>
      <trkpt lat="43.78462" lon="5.10331">
        <ele>153.8</ele>
        <time>2021-11-26T19:01:31Z</time>
      </trkpt>
      <trkpt lat="43.78469" lon="5.10324">
        <ele>153.2</ele>
        <time>2021-11-26T19:01:36Z</time>
      </trkpt>
      <trkpt lat="43.78472" lon="5.1032">
        <ele>152.8</ele>
        <time>2021-11-26T19:01:40Z</time>
      </trkpt>
      <trkpt lat="43.78484" lon="5.10304">
        <ele>152</ele>
        <time>2021-11-26T19:01:51Z</time>
      </trkpt>
      <trkpt lat="43.78498" lon="5.10287">
        <ele>152.4</ele>
        <time>2021-11-26T19:02:01Z</time>
      </trkpt>
      <trkpt lat="43.78504" lon="5.10275">
        <ele>152</ele>
        <time>2021-11-26T19:02:07Z</time>
      </trkpt>
      <trkpt lat="43.78514" lon="5.10252">
        <ele>151</ele>
        <time>2021-11-26T19:02:17Z</time>
      </trkpt>
      <trkpt lat="43.78522" lon="5.1023">
        <ele>150.4</ele>
        <time>2021-11-26T19:02:27Z</time>
      </trkpt>
      <trkpt lat="43.78532" lon="5.10208">
        <ele>150.4</ele>
        <time>2021-11-26T19:02:38Z</time>
      </trkpt>
      <trkpt lat="43.78533" lon="5.10206">
        <ele>150.2</ele>
        <time>2021-11-26T19:02:39Z</time>
      </trkpt>
      <trkpt lat="43.78534" lon="5.10202">
        <ele>150</ele>
        <time>2021-11-26T19:02:41Z</time>
      </trkpt>
      <trkpt lat="43.78544" lon="5.1018">
        <ele>149.8</ele>
        <time>2021-11-26T19:02:52Z</time>
      </trkpt>
      <trkpt lat="43.78555" lon="5.10164">
        <ele>149.8</ele>
        <time>2021-11-26T19:03:04Z</time>
      </trkpt>
      <trkpt lat="43.7857" lon="5.10155">
        <ele>150.6</ele>
        <time>2021-11-26T19:03:17Z</time>
      </trkpt>
      <trkpt lat="43.78587" lon="5.1015">
        <ele>150.4</ele>
        <time>2021-11-26T19:03:28Z</time>
      </trkpt>
      <trkpt lat="43.78599" lon="5.10148">
        <ele>151</ele>
        <time>2021-11-26T19:03:35Z</time>
      </trkpt>
      <trkpt lat="43.78608" lon="5.10145">
        <ele>151.2</ele>
        <time>2021-11-26T19:03:42Z</time>
      </trkpt>
      <trkpt lat="43.78627" lon="5.10145">
        <ele>152</ele>
        <time>2021-11-26T19:03:54Z</time>
      </trkpt>
      <trkpt lat="43.78637" lon="5.10144">
        <ele>151.8</ele>
        <time>2021-11-26T19:04:00Z</time>
      </trkpt>
      <trkpt lat="43.78656" lon="5.10144">
        <ele>152</ele>
        <time>2021-11-26T19:04:10Z</time>
      </trkpt>
      <trkpt lat="43.78665" lon="5.10143">
        <ele>152.2</ele>
        <time>2021-11-26T19:04:16Z</time>
      </trkpt>
      <trkpt lat="43.78684" lon="5.10142">
        <ele>152</ele>
        <time>2021-11-26T19:04:28Z</time>
      </trkpt>
      <trkpt lat="43.78694" lon="5.10143">
        <ele>152.6</ele>
        <time>2021-11-26T19:04:34Z</time>
      </trkpt>
      <trkpt lat="43.78711" lon="5.10144">
        <ele>153</ele>
        <time>2021-11-26T19:04:47Z</time>
      </trkpt>
      <trkpt lat="43.78722" lon="5.10144">
        <ele>154.2</ele>
        <time>2021-11-26T19:04:54Z</time>
      </trkpt>
      <trkpt lat="43.7874" lon="5.10141">
        <ele>155.2</ele>
        <time>2021-11-26T19:05:06Z</time>
      </trkpt>
      <trkpt lat="43.78742" lon="5.10141">
        <ele>155.4</ele>
        <time>2021-11-26T19:05:07Z</time>
      </trkpt>
      <trkpt lat="43.78755" lon="5.1013">
        <ele>156.4</ele>
        <time>2021-11-26T19:05:17Z</time>
      </trkpt>
      <trkpt lat="43.78773" lon="5.10121">
        <ele>157.2</ele>
        <time>2021-11-26T19:05:29Z</time>
      </trkpt>
      <trkpt lat="43.78788" lon="5.10105">
        <ele>157</ele>
        <time>2021-11-26T19:05:41Z</time>
      </trkpt>
      <trkpt lat="43.78801" lon="5.10088">
        <ele>157</ele>
        <time>2021-11-26T19:05:52Z</time>
      </trkpt>
      <trkpt lat="43.78809" lon="5.10074">
        <ele>157.4</ele>
        <time>2021-11-26T19:06:00Z</time>
      </trkpt>
      <trkpt lat="43.78814" lon="5.10063">
        <ele>158.4</ele>
        <time>2021-11-26T19:06:06Z</time>
      </trkpt>
      <trkpt lat="43.78815" lon="5.10059">
        <ele>158.6</ele>
        <time>2021-11-26T19:06:08Z</time>
      </trkpt>
      <trkpt lat="43.78821" lon="5.10051">
        <ele>159.8</ele>
        <time>2021-11-26T19:06:15Z</time>
      </trkpt>
      <trkpt lat="43.78828" lon="5.10041">
        <ele>160.8</ele>
        <time>2021-11-26T19:06:22Z</time>
      </trkpt>
      <trkpt lat="43.78831" lon="5.10036">
        <ele>162</ele>
        <time>2021-11-26T19:06:26Z</time>
      </trkpt>
      <trkpt lat="43.78834" lon="5.10028">
        <ele>163.2</ele>
        <time>2021-11-26T19:06:31Z</time>
      </trkpt>
      <trkpt lat="43.78835" lon="5.10024">
        <ele>164.2</ele>
        <time>2021-11-26T19:06:34Z</time>
      </trkpt>
      <trkpt lat="43.78838" lon="5.10021">
        <ele>165</ele>
        <time>2021-11-26T19:06:37Z</time>
      </trkpt>
      <trkpt lat="43.78839" lon="5.1002">
        <ele>165.4</ele>
        <time>2021-11-26T19:06:38Z</time>
      </trkpt>
      <trkpt lat="43.78845" lon="5.10018">
        <ele>166.6</ele>
        <time>2021-11-26T19:06:42Z</time>
      </trkpt>
      <trkpt lat="43.78847" lon="5.10016">
        <ele>167</ele>
        <time>2021-11-26T19:06:44Z</time>
      </trkpt>
      <trkpt lat="43.78852" lon="5.10011">
        <ele>167.6</ele>
        <time>2021-11-26T19:06:49Z</time>
      </trkpt>
      <trkpt lat="43.78867" lon="5.09995">
        <ele>167</ele>
        <time>2021-11-26T19:07:02Z</time>
      </trkpt>
      <trkpt lat="43.78873" lon="5.09985">
        <ele>166.4</ele>
        <time>2021-11-26T19:07:08Z</time>
      </trkpt>
      <trkpt lat="43.78877" lon="5.0998">
        <ele>165</ele>
        <time>2021-11-26T19:07:12Z</time>
      </trkpt>
      <trkpt lat="43.78885" lon="5.09975">
        <ele>164</ele>
        <time>2021-11-26T19:07:18Z</time>
      </trkpt>
      <trkpt lat="43.78898" lon="5.09964">
        <ele>163.4</ele>
        <time>2021-11-26T19:07:27Z</time>
      </trkpt>
      <trkpt lat="43.78903" lon="5.09957">
        <ele>163</ele>
        <time>2021-11-26T19:07:31Z</time>
      </trkpt>
      <trkpt lat="43.78908" lon="5.0995">
        <ele>163</ele>
        <time>2021-11-26T19:07:36Z</time>
      </trkpt>
      <trkpt lat="43.78924" lon="5.09934">
        <ele>162.6</ele>
        <time>2021-11-26T19:07:49Z</time>
      </trkpt>
      <trkpt lat="43.78935" lon="5.09923">
        <ele>163.4</ele>
        <time>2021-11-26T19:07:56Z</time>
      </trkpt>
      <trkpt lat="43.78949" lon="5.09905">
        <ele>163.2</ele>
        <time>2021-11-26T19:08:08Z</time>
      </trkpt>
      <trkpt lat="43.78961" lon="5.09886">
        <ele>163.6</ele>
        <time>2021-11-26T19:08:19Z</time>
      </trkpt>
      <trkpt lat="43.78965" lon="5.09883">
        <ele>164</ele>
        <time>2021-11-26T19:08:22Z</time>
      </trkpt>
      <trkpt lat="43.78978" lon="5.09866">
        <ele>164.6</ele>
        <time>2021-11-26T19:08:33Z</time>
      </trkpt>
      <trkpt lat="43.78982" lon="5.09863">
        <ele>165.2</ele>
        <time>2021-11-26T19:08:36Z</time>
      </trkpt>
      <trkpt lat="43.78983" lon="5.09862">
        <ele>165.4</ele>
        <time>2021-11-26T19:08:37Z</time>
      </trkpt>
      <trkpt lat="43.78993" lon="5.09846">
        <ele>166.4</ele>
        <time>2021-11-26T19:08:46Z</time>
      </trkpt>
      <trkpt lat="43.78996" lon="5.09832">
        <ele>167.4</ele>
        <time>2021-11-26T19:08:52Z</time>
      </trkpt>
      <trkpt lat="43.79005" lon="5.09807">
        <ele>168.2</ele>
        <time>2021-11-26T19:09:04Z</time>
      </trkpt>
      <trkpt lat="43.79016" lon="5.09792">
        <ele>168.6</ele>
        <time>2021-11-26T19:09:15Z</time>
      </trkpt>
      <trkpt lat="43.79021" lon="5.09784">
        <ele>169.6</ele>
        <time>2021-11-26T19:09:21Z</time>
      </trkpt>
      <trkpt lat="43.7903" lon="5.09774">
        <ele>170.8</ele>
        <time>2021-11-26T19:09:28Z</time>
      </trkpt>
      <trkpt lat="43.79037" lon="5.09766">
        <ele>171.8</ele>
        <time>2021-11-26T19:09:34Z</time>
      </trkpt>
      <trkpt lat="43.79043" lon="5.09758">
        <ele>173</ele>
        <time>2021-11-26T19:09:40Z</time>
      </trkpt>
      <trkpt lat="43.79052" lon="5.09748">
        <ele>174.2</ele>
        <time>2021-11-26T19:09:47Z</time>
      </trkpt>
      <trkpt lat="43.79057" lon="5.09743">
        <ele>175.2</ele>
        <time>2021-11-26T19:09:51Z</time>
      </trkpt>
      <trkpt lat="43.7907" lon="5.09725">
        <ele>175.8</ele>
        <time>2021-11-26T19:10:03Z</time>
      </trkpt>
      <trkpt lat="43.79083" lon="5.09715">
        <ele>174.2</ele>
        <time>2021-11-26T19:10:14Z</time>
      </trkpt>
      <trkpt lat="43.79084" lon="5.09715">
        <ele>174</ele>
        <time>2021-11-26T19:10:15Z</time>
      </trkpt>
      <trkpt lat="43.79096" lon="5.09709">
        <ele>173</ele>
        <time>2021-11-26T19:10:23Z</time>
      </trkpt>
      <trkpt lat="43.79104" lon="5.09704">
        <ele>172</ele>
        <time>2021-11-26T19:10:28Z</time>
      </trkpt>
      <trkpt lat="43.79106" lon="5.09702">
        <ele>171.4</ele>
        <time>2021-11-26T19:10:30Z</time>
      </trkpt>
      <trkpt lat="43.79108" lon="5.097">
        <ele>171</ele>
        <time>2021-11-26T19:10:32Z</time>
      </trkpt>
      <trkpt lat="43.79109" lon="5.09698">
        <ele>171</ele>
        <time>2021-11-26T19:10:33Z</time>
      </trkpt>
      <trkpt lat="43.79112" lon="5.09695">
        <ele>170.4</ele>
        <time>2021-11-26T19:10:35Z</time>
      </trkpt>
      <trkpt lat="43.79115" lon="5.09694">
        <ele>169.8</ele>
        <time>2021-11-26T19:10:37Z</time>
      </trkpt>
      <trkpt lat="43.79117" lon="5.09691">
        <ele>169.6</ele>
        <time>2021-11-26T19:10:39Z</time>
      </trkpt>
      <trkpt lat="43.79131" lon="5.09686">
        <ele>168.8</ele>
        <time>2021-11-26T19:10:47Z</time>
      </trkpt>
      <trkpt lat="43.79139" lon="5.09678">
        <ele>167.8</ele>
        <time>2021-11-26T19:10:53Z</time>
      </trkpt>
      <trkpt lat="43.79149" lon="5.0967">
        <ele>166.8</ele>
        <time>2021-11-26T19:11:00Z</time>
      </trkpt>
      <trkpt lat="43.79153" lon="5.09667">
        <ele>167</ele>
        <time>2021-11-26T19:11:03Z</time>
      </trkpt>
      <trkpt lat="43.79154" lon="5.09665">
        <ele>166.8</ele>
        <time>2021-11-26T19:11:05Z</time>
      </trkpt>
      <trkpt lat="43.79155" lon="5.09663">
        <ele>166.6</ele>
        <time>2021-11-26T19:11:07Z</time>
      </trkpt>
      <trkpt lat="43.79149" lon="5.09663">
        <ele>166.4</ele>
        <time>2021-11-26T19:11:21Z</time>
      </trkpt>
      <trkpt lat="43.79154" lon="5.09668">
        <ele>166.4</ele>
        <time>2021-11-26T19:11:37Z</time>
      </trkpt>
      <trkpt lat="43.79164" lon="5.09645">
        <ele>166</ele>
        <time>2021-11-26T19:11:47Z</time>
      </trkpt>
      <trkpt lat="43.79174" lon="5.09623">
        <ele>165.8</ele>
        <time>2021-11-26T19:11:58Z</time>
      </trkpt>
      <trkpt lat="43.79178" lon="5.09617">
        <ele>165.6</ele>
        <time>2021-11-26T19:12:01Z</time>
      </trkpt>
      <trkpt lat="43.79189" lon="5.09596">
        <ele>164.6</ele>
        <time>2021-11-26T19:12:11Z</time>
      </trkpt>
      <trkpt lat="43.79192" lon="5.09592">
        <ele>164.4</ele>
        <time>2021-11-26T19:12:13Z</time>
      </trkpt>
      <trkpt lat="43.79205" lon="5.09576">
        <ele>163.4</ele>
        <time>2021-11-26T19:12:23Z</time>
      </trkpt>
      <trkpt lat="43.79216" lon="5.09562">
        <ele>163.2</ele>
        <time>2021-11-26T19:12:32Z</time>
      </trkpt>
      <trkpt lat="43.79222" lon="5.09554">
        <ele>162.2</ele>
        <time>2021-11-26T19:12:36Z</time>
      </trkpt>
      <trkpt lat="43.79228" lon="5.09545">
        <ele>161</ele>
        <time>2021-11-26T19:12:42Z</time>
      </trkpt>
      <trkpt lat="43.7924" lon="5.09527">
        <ele>159.8</ele>
        <time>2021-11-26T19:12:52Z</time>
      </trkpt>
      <trkpt lat="43.79246" lon="5.09519">
        <ele>159.2</ele>
        <time>2021-11-26T19:12:57Z</time>
      </trkpt>
      <trkpt lat="43.79244" lon="5.09521">
        <ele>159</ele>
        <time>2021-11-26T19:13:01Z</time>
      </trkpt>
      <trkpt lat="43.79249" lon="5.0952">
        <ele>159</ele>
        <time>2021-11-26T19:13:11Z</time>
      </trkpt>
      <trkpt lat="43.79251" lon="5.09517">
        <ele>158.8</ele>
        <time>2021-11-26T19:13:13Z</time>
      </trkpt>
      <trkpt lat="43.79263" lon="5.09497">
        <ele>158.4</ele>
        <time>2021-11-26T19:13:25Z</time>
      </trkpt>
      <trkpt lat="43.7927" lon="5.09488">
        <ele>157.8</ele>
        <time>2021-11-26T19:13:31Z</time>
      </trkpt>
      <trkpt lat="43.79272" lon="5.09484">
        <ele>157.6</ele>
        <time>2021-11-26T19:13:33Z</time>
      </trkpt>
      <trkpt lat="43.79283" lon="5.0947">
        <ele>157.4</ele>
        <time>2021-11-26T19:13:43Z</time>
      </trkpt>
      <trkpt lat="43.7929" lon="5.09486">
        <ele>156.8</ele>
        <time>2021-11-26T19:13:50Z</time>
      </trkpt>
      <trkpt lat="43.79298" lon="5.09496">
        <ele>157</ele>
        <time>2021-11-26T19:13:59Z</time>
      </trkpt>
      <trkpt lat="43.79303" lon="5.09502">
        <ele>157</ele>
        <time>2021-11-26T19:14:05Z</time>
      </trkpt>
      <trkpt lat="43.79307" lon="5.09504">
        <ele>157</ele>
        <time>2021-11-26T19:14:07Z</time>
      </trkpt>
      <trkpt lat="43.79325" lon="5.09499">
        <ele>157.6</ele>
        <time>2021-11-26T19:14:19Z</time>
      </trkpt>
      <trkpt lat="43.79343" lon="5.09493">
        <ele>157</ele>
        <time>2021-11-26T19:14:30Z</time>
      </trkpt>
      <trkpt lat="43.79353" lon="5.09488">
        <ele>157</ele>
        <time>2021-11-26T19:14:37Z</time>
      </trkpt>
      <trkpt lat="43.79364" lon="5.09483">
        <ele>156.8</ele>
        <time>2021-11-26T19:14:45Z</time>
      </trkpt>
      <trkpt lat="43.7937" lon="5.09474">
        <ele>156.6</ele>
        <time>2021-11-26T19:14:51Z</time>
      </trkpt>
      <trkpt lat="43.79384" lon="5.09457">
        <ele>157</ele>
        <time>2021-11-26T19:15:03Z</time>
      </trkpt>
      <trkpt lat="43.7939" lon="5.09449">
        <ele>157.8</ele>
        <time>2021-11-26T19:15:10Z</time>
      </trkpt>
      <trkpt lat="43.79402" lon="5.09439">
        <ele>159</ele>
        <time>2021-11-26T19:15:18Z</time>
      </trkpt>
      <trkpt lat="43.79406" lon="5.09436">
        <ele>159.4</ele>
        <time>2021-11-26T19:15:21Z</time>
      </trkpt>
      <trkpt lat="43.79412" lon="5.09427">
        <ele>160.2</ele>
        <time>2021-11-26T19:15:27Z</time>
      </trkpt>
      <trkpt lat="43.79427" lon="5.09411">
        <ele>159.8</ele>
        <time>2021-11-26T19:15:40Z</time>
      </trkpt>
      <trkpt lat="43.79437" lon="5.09388">
        <ele>159.2</ele>
        <time>2021-11-26T19:15:51Z</time>
      </trkpt>
      <trkpt lat="43.79438" lon="5.09386">
        <ele>159</ele>
        <time>2021-11-26T19:15:52Z</time>
      </trkpt>
      <trkpt lat="43.79453" lon="5.09369">
        <ele>158.4</ele>
        <time>2021-11-26T19:16:03Z</time>
      </trkpt>
      <trkpt lat="43.79458" lon="5.09363">
        <ele>157.8</ele>
        <time>2021-11-26T19:16:08Z</time>
      </trkpt>
      <trkpt lat="43.79471" lon="5.09353">
        <ele>159</ele>
        <time>2021-11-26T19:16:17Z</time>
      </trkpt>
      <trkpt lat="43.79482" lon="5.09346">
        <ele>160.2</ele>
        <time>2021-11-26T19:16:24Z</time>
      </trkpt>
      <trkpt lat="43.79484" lon="5.09344">
        <ele>160.2</ele>
        <time>2021-11-26T19:16:26Z</time>
      </trkpt>
      <trkpt lat="43.79489" lon="5.09336">
        <ele>161.4</ele>
        <time>2021-11-26T19:16:31Z</time>
      </trkpt>
      <trkpt lat="43.79499" lon="5.09327">
        <ele>162.4</ele>
        <time>2021-11-26T19:16:39Z</time>
      </trkpt>
      <trkpt lat="43.79511" lon="5.09322">
        <ele>161.2</ele>
        <time>2021-11-26T19:16:47Z</time>
      </trkpt>
      <trkpt lat="43.79519" lon="5.09315">
        <ele>160.6</ele>
        <time>2021-11-26T19:16:52Z</time>
      </trkpt>
      <trkpt lat="43.79523" lon="5.0931">
        <ele>160</ele>
        <time>2021-11-26T19:16:55Z</time>
      </trkpt>
      <trkpt lat="43.79527" lon="5.09307">
        <ele>159.4</ele>
        <time>2021-11-26T19:16:58Z</time>
      </trkpt>
      <trkpt lat="43.79531" lon="5.09303">
        <ele>158.8</ele>
        <time>2021-11-26T19:17:01Z</time>
      </trkpt>
      <trkpt lat="43.79549" lon="5.09294">
        <ele>158</ele>
        <time>2021-11-26T19:17:13Z</time>
      </trkpt>
      <trkpt lat="43.7955" lon="5.09293">
        <ele>158.4</ele>
        <time>2021-11-26T19:17:14Z</time>
      </trkpt>
      <trkpt lat="43.79562" lon="5.09281">
        <ele>159.8</ele>
        <time>2021-11-26T19:17:24Z</time>
      </trkpt>
      <trkpt lat="43.79566" lon="5.09276">
        <ele>160.2</ele>
        <time>2021-11-26T19:17:29Z</time>
      </trkpt>
      <trkpt lat="43.79577" lon="5.09266">
        <ele>158.6</ele>
        <time>2021-11-26T19:17:38Z</time>
      </trkpt>
      <trkpt lat="43.79588" lon="5.09255">
        <ele>157.4</ele>
        <time>2021-11-26T19:17:46Z</time>
      </trkpt>
      <trkpt lat="43.79594" lon="5.09248">
        <ele>156.4</ele>
        <time>2021-11-26T19:17:51Z</time>
      </trkpt>
      <trkpt lat="43.796" lon="5.09241">
        <ele>155.4</ele>
        <time>2021-11-26T19:17:56Z</time>
      </trkpt>
      <trkpt lat="43.79605" lon="5.09234">
        <ele>154.2</ele>
        <time>2021-11-26T19:18:02Z</time>
      </trkpt>
      <trkpt lat="43.79605" lon="5.09229">
        <ele>153.8</ele>
        <time>2021-11-26T19:18:05Z</time>
      </trkpt>
      <trkpt lat="43.79608" lon="5.09225">
        <ele>153.4</ele>
        <time>2021-11-26T19:18:08Z</time>
      </trkpt>
      <trkpt lat="43.79625" lon="5.09217">
        <ele>153.4</ele>
        <time>2021-11-26T19:18:20Z</time>
      </trkpt>
      <trkpt lat="43.79644" lon="5.09217">
        <ele>153.6</ele>
        <time>2021-11-26T19:18:32Z</time>
      </trkpt>
      <trkpt lat="43.79663" lon="5.09218">
        <ele>153.6</ele>
        <time>2021-11-26T19:18:43Z</time>
      </trkpt>
      <trkpt lat="43.79682" lon="5.09221">
        <ele>154</ele>
        <time>2021-11-26T19:18:54Z</time>
      </trkpt>
      <trkpt lat="43.79697" lon="5.09235">
        <ele>154.2</ele>
        <time>2021-11-26T19:19:05Z</time>
      </trkpt>
      <trkpt lat="43.79707" lon="5.09246">
        <ele>154.4</ele>
        <time>2021-11-26T19:19:13Z</time>
      </trkpt>
    </trkseg>
  </trk>
</gpx>